UA2811 / N12010 7700 Squawk Report (2nd of July, 2020)

Aircraft B78X Reg No. N12010 Age 8 months old
Model 787 Jet engines 2 First flight 04-12-19
Registered 24-12-19 Rollout N/A Delivered 24-12-19
Construction No. 40926 Line No. 0948 Series 10
ADSHEX A05646 Airline name United Airlines Owner N/A
Airfield based Chicago O`Hare~IL~N First tracked N/A

Flight history for N12010

Route Flight No Date Playback
Washington Dulles International (IAD) - Frankfurt Main (FRA) UA989 2020-08-09 00:31:00
Brussels Airport (BRU) - Washington Dulles International (IAD) UA951 2020-08-08 18:35:00
Washington Dulles International (IAD) - Brussels Airport (BRU) UA950 2020-08-08 06:20:00
Frankfurt Main (FRA) - Washington Dulles International (IAD) UA988 2020-08-07 19:29:00
Newark Liberty Intl (EWR) - Frankfurt Main (FRA) UA960 2020-08-07 11:09:00
Schiphol (AMS) - Newark Liberty Intl (EWR) UA71 2020-08-06 20:52:00
Newark Liberty Intl (EWR) - Schiphol (AMS) UA70 2020-08-06 09:07:00
Charles De Gaulle (CDG) - Newark Liberty Intl (EWR) UA56 2020-08-05 22:07:00
Newark Liberty Intl (EWR) - Charles De Gaulle (CDG) UA57 2020-08-05 05:31:00
San Francisco Intl (SFO) - Newark Liberty Intl (EWR) UA572 2020-08-04 21:06:00
Newark Liberty Intl (EWR) - San Francisco Intl (SFO) UA2006 2020-08-04 04:15:00
Frankfurt Main (FRA) - Newark Liberty Intl (EWR) UA961 2020-08-03 22:39:00
Washington Dulles International (IAD) - Frankfurt Main (FRA) UA989 2020-08-03 11:44:00
Brussels Airport (BRU) - Washington Dulles International (IAD) UA951 2020-08-02 18:48:00
Washington Dulles International (IAD) - Brussels Airport (BRU) UA950 2020-08-02 05:05:00
Frankfurt Main (FRA) - Washington Dulles International (IAD) UA988 2020-08-01 19:32:00
Newark Liberty Intl (EWR) - Frankfurt Main (FRA) UA960 2020-08-01 11:28:00
Heathrow (LHR) - Newark Liberty Intl (EWR) UA15 2020-07-31 20:16:00
Chicago Ohare Intl (ORD) - Heathrow (LHR) UA931 2020-07-31 06:19:00
Heathrow (LHR) - Chicago Ohare Intl (ORD) UA928 2020-07-30 22:58:00
Time Lat Lon Altitude Heading Speed Vertical Rate
2020-07-02 10:43:43 GMT 52.311600 4.747447 0 92 0 0
2020-07-02 10:43:36 GMT 52.311596 4.747448 0 92 0 0
2020-07-02 10:43:30 GMT 52.311600 4.747428 0 92 2 0
2020-07-02 10:43:19 GMT 52.311611 4.747212 0 92 4 0
2020-07-02 10:43:14 GMT 52.311611 4.747094 0 92 5 0
2020-07-02 10:43:06 GMT 52.311623 4.746663 0 95 10 0
2020-07-02 10:42:55 GMT 52.311619 4.746017 0 146 9 0
2020-07-02 10:42:45 GMT 52.311924 4.745760 0 182 10 0
2020-07-02 10:42:34 GMT 52.312450 4.745799 0 182 11 0
2020-07-02 10:42:29 GMT 52.312672 4.745839 0 182 9 0
2020-07-02 10:42:25 GMT 52.312832 4.745846 0 182 9 0
2020-07-02 10:42:15 GMT 52.313217 4.745878 0 182 9 0
2020-07-02 10:42:05 GMT 52.313625 4.745898 0 202 10 0
2020-07-02 10:41:49 GMT 52.314079 4.746506 0 208 8 0
2020-07-02 10:41:46 GMT 52.314148 4.746623 0 208 8 0
2020-07-02 10:41:41 GMT 52.314285 4.746723 0 177 8 0
2020-07-02 10:41:32 GMT 52.314716 4.746682 0 177 13 0
2020-07-02 10:41:24 GMT 52.315159 4.746643 0 177 13 0
2020-07-02 10:41:14 GMT 52.315720 4.746584 0 177 12 0
2020-07-02 10:41:04 GMT 52.316299 4.746628 0 216 13 0
2020-07-02 10:40:57 GMT 52.316696 4.747624 0 247 14 0
2020-07-02 10:40:52 GMT 52.316696 4.747624 0 267 17 0
2020-07-02 10:40:44 GMT 52.316730 4.748762 0 267 24 0
2020-07-02 10:40:41 GMT 52.316753 4.749311 0 267 26 0
2020-07-02 10:40:34 GMT 52.316792 4.750824 0 267 32 0
2020-07-02 10:40:31 GMT 52.316814 4.751430 0 267 33 0
2020-07-02 10:40:23 GMT 52.316872 4.753437 0 264 36 0
2020-07-02 10:40:13 GMT 52.316986 4.756203 0 264 39 0
2020-07-02 10:40:02 GMT 52.317104 4.759532 0 264 42 0
2020-07-02 10:39:52 GMT 52.317215 4.762802 0 267 45 0
2020-07-02 10:39:42 GMT 52.317360 4.766634 0 264 63 0
2020-07-02 10:39:30 GMT 52.317581 4.773560 0 267 110 0
2020-07-02 10:39:25 GMT 52.317764 4.778442 25 268 117 0
2020-07-02 10:39:16 GMT 52.318058 4.786743 50 268 141 -128
2020-07-02 10:39:12 GMT 52.318405 4.796600 125 267 145 -576
2020-07-02 10:39:06 GMT 52.318432 4.798279 125 267 145 -704
2020-07-02 10:38:59 GMT 52.318909 4.812317 225 267 144 -768
2020-07-02 10:38:56 GMT 52.318817 4.808578 225 267 143 -896
2020-07-02 10:38:52 GMT 52.319000 4.813995 450 267 142 -640
2020-07-02 10:38:48 GMT 52.319080 4.817348 375 268 141 -832
2020-07-02 10:38:45 GMT 52.319176 4.820565 425 267 141 -832
2020-07-02 10:38:41 GMT 52.319321 4.824677 450 267 142 -640
2020-07-02 10:38:37 GMT 52.319500 4.829511 500 267 142 -768
2020-07-02 10:38:34 GMT 52.319641 4.833827 525 267 145 -832
2020-07-02 10:38:31 GMT 52.319687 4.835892 575 267 144 -832
2020-07-02 10:38:28 GMT 52.319824 4.838943 575 267 144 -832
2020-07-02 10:38:25 GMT 52.319962 4.842606 675 267 147 -1088
2020-07-02 10:38:22 GMT 52.320248 4.851641 675 267 144 -832
2020-07-02 10:38:19 GMT 52.320152 4.849051 700 267 144 -768
2020-07-02 10:38:16 GMT 52.320248 4.851641 750 268 144 -832
2020-07-02 10:38:13 GMT 52.320419 4.856567 800 267 145 -960
2020-07-02 10:38:09 GMT 52.320526 4.860430 825 267 145 -896
2020-07-02 10:38:06 GMT 52.320648 4.863358 900 267 147 -1088
2020-07-02 10:38:03 GMT 52.320759 4.866629 950 267 147 -1024
2020-07-02 10:38:00 GMT 52.320850 4.870161 975 267 147 -640
2020-07-02 10:37:57 GMT 52.320969 4.872894 1,000 267 146 -768
2020-07-02 10:37:54 GMT 52.321106 4.877701 1,075 267 143 -832
2020-07-02 10:37:51 GMT 52.321178 4.879970 1,100 267 143 -704
2020-07-02 10:37:48 GMT 52.321270 4.882795 1,125 267 143 -768
2020-07-02 10:37:45 GMT 52.321426 4.886627 1,125 267 143 -832
2020-07-02 10:37:42 GMT 52.321518 4.889374 1,200 267 143 -768
2020-07-02 10:37:38 GMT 52.321644 4.893624 1,225 268 143 -768
2020-07-02 10:37:35 GMT 52.321747 4.897003 1,275 268 143 -896
2020-07-02 10:37:32 GMT 52.321877 4.900138 1,325 268 143 -960
2020-07-02 10:37:29 GMT 52.321976 4.903870 1,375 267 143 -896
2020-07-02 10:37:26 GMT 52.322067 4.906464 1,425 267 143 -704
2020-07-02 10:37:23 GMT 52.322201 4.910025 1,450 268 143 -832
2020-07-02 10:37:20 GMT 52.322296 4.913243 1,500 267 143 -832
2020-07-02 10:37:17 GMT 52.322388 4.915924 1,525 267 142 -704
2020-07-02 10:37:14 GMT 52.322479 4.919205 1,550 267 143 -704
2020-07-02 10:37:10 GMT 52.322662 4.924011 1,625 267 148 -768
2020-07-02 10:37:06 GMT 52.322807 4.929487 1,675 267 151 -1152
2020-07-02 10:37:02 GMT 52.322937 4.933243 1,750 268 152 -1152
2020-07-02 10:36:56 GMT 52.323212 4.941559 1,825 268 157 -640
2020-07-02 10:36:53 GMT 52.323257 4.943924 1,875 267 180 -64
2020-07-02 10:36:50 GMT 52.323414 4.948007 1,900 268 158 -704
2020-07-02 10:36:47 GMT 52.323532 4.951477 1,950 268 159 -768
2020-07-02 10:36:44 GMT 52.323624 4.955063 1,975 268 160 -640
2020-07-02 10:36:40 GMT 52.323738 4.959072 2,050 268 159 -704
2020-07-02 10:36:37 GMT 52.323875 4.962917 2,100 268 160 -192
2020-07-02 10:36:34 GMT 52.323944 4.965897 2,100 268 160 -192
2020-07-02 10:36:30 GMT 52.324108 4.971078 2,100 268 166 -64
2020-07-02 10:36:27 GMT 52.324249 4.974688 2,100 267 163 -128
2020-07-02 10:36:24 GMT 52.324356 4.977798 2,100 268 164 -128
2020-07-02 10:36:21 GMT 52.324436 4.981672 2,125 268 166 64
2020-07-02 10:36:18 GMT 52.324577 4.985674 2,100 268 168 192
2020-07-02 10:36:15 GMT 52.324677 4.990158 2,100 268 171 64
2020-07-02 10:36:12 GMT 52.324806 4.994385 2,100 269 172 -64
2020-07-02 10:36:09 GMT 52.324856 4.996739 2,100 267 180 -64
2020-07-02 10:36:06 GMT 52.324993 5.001683 2,100 268 177 0
2020-07-02 10:36:03 GMT 52.325043 5.004501 2,100 267 180 -64
2020-07-02 10:36:00 GMT 52.325226 5.009079 2,100 267 180 -64
2020-07-02 10:35:57 GMT 52.325413 5.014474 2,100 267 186 -192
2020-07-02 10:35:54 GMT 52.325554 5.018947 2,100 267 187 0
2020-07-02 10:35:50 GMT 52.325787 5.023734 2,125 267 186 0
2020-07-02 10:35:47 GMT 52.325974 5.027658 2,125 266 186 0
2020-07-02 10:35:44 GMT 52.326187 5.031433 2,125 264 185 64
2020-07-02 10:35:40 GMT 52.326645 5.037003 2,100 254 183 192
2020-07-02 10:35:37 GMT 52.327148 5.040741 2,100 254 183 192
2020-07-02 10:35:34 GMT 52.328201 5.045471 2,100 244 184 -64
2020-07-02 10:35:30 GMT 52.329666 5.050201 2,100 240 186 -128
2020-07-02 10:35:27 GMT 52.330948 5.053558 2,100 238 189 -128
2020-07-02 10:35:24 GMT 52.332504 5.057678 2,100 238 188 -128
2020-07-02 10:35:20 GMT 52.334244 5.061951 2,125 235 191 0
2020-07-02 10:35:17 GMT 52.335747 5.065325 2,100 233 191 64
2020-07-02 10:35:14 GMT 52.337723 5.069275 2,100 227 190 64
2020-07-02 10:35:11 GMT 52.340263 5.073408 2,100 219 189 -64
2020-07-02 10:35:06 GMT 52.343628 5.077362 2,100 209 191 64
2020-07-02 10:35:03 GMT 52.345230 5.078659 2,100 204 193 0
2020-07-02 10:35:00 GMT 52.347668 5.080157 2,100 116 239 -384
2020-07-02 10:34:57 GMT 52.350220 5.081177 2,100 186 200 0
2020-07-02 10:34:54 GMT 52.353561 5.081787 2,100 182 203 64
2020-07-02 10:34:51 GMT 52.355904 5.081883 2,100 175 205 -64
2020-07-02 10:34:48 GMT 52.358826 5.081711 2,100 175 205 -64
2020-07-02 10:34:45 GMT 52.361958 5.081412 2,100 175 206 -64
2020-07-02 10:34:42 GMT 52.363865 5.081177 2,100 175 205 64
2020-07-02 10:34:39 GMT 52.370708 5.080314 2,100 175 205 -64
2020-07-02 10:34:36 GMT 52.370708 5.080314 2,100 175 205 64
2020-07-02 10:34:33 GMT 52.372944 5.080000 2,100 173 202 0
2020-07-02 10:34:30 GMT 52.375969 5.079529 2,100 173 202 0
2020-07-02 10:34:27 GMT 52.378876 5.079041 2,100 173 202 0
2020-07-02 10:34:24 GMT 52.381741 5.078352 2,100 170 202 -128
2020-07-02 10:34:21 GMT 52.384781 5.077362 2,100 165 204 0
2020-07-02 10:34:18 GMT 52.386677 5.076468 2,100 157 210 192
2020-07-02 10:34:15 GMT 52.390308 5.074114 2,075 150 214 -64
2020-07-02 10:34:12 GMT 52.391968 5.072708 2,075 148 217 -64
2020-07-02 10:34:08 GMT 52.396034 5.067915 2,075 135 229 -64
2020-07-02 10:34:05 GMT 52.397919 5.064926 2,100 128 233 -192
2020-07-02 10:34:02 GMT 52.401714 5.056928 2,100 120 238 -320
2020-07-02 10:33:59 GMT 52.402271 5.055437 2,100 118 238 -320
2020-07-02 10:33:56 GMT 52.403294 5.052220 2,125 116 239 -384
2020-07-02 10:33:53 GMT 52.404785 5.046310 2,150 106 243 -640
2020-07-02 10:33:50 GMT 52.405563 5.041733 3,075 93 264 -2048
2020-07-02 10:33:47 GMT 52.406845 5.028076 2,300 95 248 -1408
2020-07-02 10:33:43 GMT 52.406845 5.028076 2,300 95 248 -1408
2020-07-02 10:33:40 GMT 52.407112 5.022949 2,400 94 249 -1600
2020-07-02 10:33:37 GMT 52.407391 5.016593 2,450 94 249 -1856
2020-07-02 10:33:33 GMT 52.407715 5.008850 2,550 93 249 -2112
2020-07-02 10:33:30 GMT 52.408264 4.996033 2,775 93 250 -2176
2020-07-02 10:33:27 GMT 52.408264 4.996033 3,025 93 250 -2240
2020-07-02 10:33:24 GMT 52.408447 4.992676 2,875 93 250 -2304
2020-07-02 10:33:21 GMT 52.408836 4.983398 3,525 93 258 -1216
2020-07-02 10:33:18 GMT 52.408882 4.981515 3,050 93 250 -2368
2020-07-02 10:33:15 GMT 52.409206 4.973982 3,300 93 250 -2048
2020-07-02 10:33:12 GMT 52.409348 4.970215 3,875 94 265 -2048
2020-07-02 10:33:08 GMT 52.409721 4.962211 3,450 94 252 -1664
2020-07-02 10:33:05 GMT 52.409958 4.956284 3,550 94 255 -1344
2020-07-02 10:33:02 GMT 52.410187 4.950562 3,625 93 258 -1280
2020-07-02 10:32:59 GMT 52.410416 4.945526 3,625 93 258 -1280
2020-07-02 10:32:56 GMT 52.410652 4.939845 3,675 93 259 -1216
2020-07-02 10:32:53 GMT 52.410965 4.932556 3,775 93 262 -1408
2020-07-02 10:32:50 GMT 52.411285 4.925842 3,850 94 263 -1536
2020-07-02 10:32:47 GMT 52.411488 4.920855 3,900 94 264 -1856
2020-07-02 10:32:44 GMT 52.411789 4.913864 4,125 94 264 -1920
2020-07-02 10:32:41 GMT 52.412373 4.900844 4,250 94 265 -2112
2020-07-02 10:32:38 GMT 52.412373 4.900844 4,250 94 265 -2112
2020-07-02 10:32:34 GMT 52.412651 4.894802 4,350 94 265 -2112
2020-07-02 10:32:31 GMT 52.412888 4.889832 4,425 93 265 -2112
2020-07-02 10:32:28 GMT 52.413349 4.878401 4,625 93 264 -2112
2020-07-02 10:32:21 GMT 52.413723 4.868827 4,775 93 264 -2048
2020-07-02 10:32:18 GMT 52.413956 4.862863 4,900 93 264 -1984
2020-07-02 10:32:15 GMT 52.414261 4.855118 5,025 93 263 -1984
2020-07-02 10:32:12 GMT 52.414375 4.852112 5,125 93 263 -1920
2020-07-02 10:32:09 GMT 52.414627 4.845123 5,150 93 264 -1792
2020-07-02 10:32:06 GMT 52.414810 4.840012 5,275 93 265 -1472
2020-07-02 10:32:03 GMT 52.415085 4.833603 5,350 93 268 -960
2020-07-02 10:32:00 GMT 52.415352 4.826922 5,375 93 269 -768
2020-07-02 10:31:57 GMT 52.415585 4.820408 5,400 93 271 -640
2020-07-02 10:31:53 GMT 52.415867 4.812953 5,450 93 278 -640
2020-07-02 10:31:50 GMT 52.416092 4.806900 5,500 93 288 -2240
2020-07-02 10:31:47 GMT 52.416367 4.800110 5,500 93 281 -768
2020-07-02 10:31:44 GMT 52.416550 4.794159 5,525 93 283 -832
2020-07-02 10:31:41 GMT 52.416798 4.787449 5,600 93 286 -1152
2020-07-02 10:31:38 GMT 52.417027 4.780544 5,650 93 287 -1472
2020-07-02 10:31:35 GMT 52.417236 4.775085 5,725 93 288 -1728
2020-07-02 10:31:32 GMT 52.417496 4.767517 5,850 93 288 -2176
2020-07-02 10:31:29 GMT 52.417679 4.761396 6,000 93 288 -2368
2020-07-02 10:31:26 GMT 52.417912 4.754412 5,975 93 288 -2368
2020-07-02 10:31:23 GMT 52.418144 4.746565 6,300 92 287 -2112
2020-07-02 10:31:20 GMT 52.418285 4.742249 6,325 92 287 -2112
2020-07-02 10:31:17 GMT 52.418472 4.736862 6,375 92 287 -2048
2020-07-02 10:31:14 GMT 52.418793 4.726410 6,425 92 287 -1984
2020-07-02 10:31:11 GMT 52.418983 4.721453 6,575 92 287 -1984
2020-07-02 10:31:08 GMT 52.419170 4.714469 6,700 93 287 -1920
2020-07-02 10:31:05 GMT 52.419342 4.709473 6,750 93 287 -1920
2020-07-02 10:31:02 GMT 52.419617 4.702530 6,900 93 288 -1856
2020-07-02 10:30:59 GMT 52.419868 4.694929 7,000 93 288 -1856
2020-07-02 10:30:56 GMT 52.420074 4.689484 7,050 93 288 -1792
2020-07-02 10:30:53 GMT 52.420349 4.681702 7,225 93 289 0
2020-07-02 10:30:50 GMT 52.420521 4.676252 7,225 93 289 -1728
2020-07-02 10:30:47 GMT 52.420753 4.670131 7,350 93 290 -1344
2020-07-02 10:30:44 GMT 52.420990 4.663773 7,425 93 291 -1088
2020-07-02 10:30:41 GMT 52.421543 4.649022 7,450 93 293 -832
2020-07-02 10:30:38 GMT 52.421543 4.649022 7,500 93 294 -768
2020-07-02 10:30:35 GMT 52.421730 4.642744 7,525 93 295 -768
2020-07-02 10:30:31 GMT 52.422054 4.634739 7,600 93 298 -768
2020-07-02 10:30:28 GMT 52.422318 4.628220 7,700 93 300 -960
2020-07-02 10:30:25 GMT 52.422546 4.621887 7,650 93 300 -896
2020-07-02 10:30:22 GMT 52.422802 4.615278 7,675 93 300 -960
2020-07-02 10:30:19 GMT 52.423080 4.608451 7,750 93 301 -1152
2020-07-02 10:30:16 GMT 52.423454 4.599819 7,850 93 302 -1344
2020-07-02 10:30:13 GMT 52.423737 4.593201 7,875 93 302 -1280
2020-07-02 10:30:10 GMT 52.424286 4.580002 8,000 93 302 -1344
2020-07-02 10:30:04 GMT 52.424664 4.571097 8,100 93 302 -1280
2020-07-02 10:30:01 GMT 52.424927 4.565353 8,125 93 302 -1280
2020-07-02 10:29:58 GMT 52.425156 4.559479 8,175 93 302 -1280
2020-07-02 10:29:55 GMT 52.425476 4.552612 8,225 93 302 -1216
2020-07-02 10:29:52 GMT 52.425735 4.545986 8,325 94 302 -1280
2020-07-02 10:29:49 GMT 52.426025 4.539337 8,400 93 302 -1344
2020-07-02 10:29:46 GMT 52.426575 4.527054 8,475 93 302 -1280
2020-07-02 10:29:40 GMT 52.426895 4.519461 8,575 94 303 -1216
2020-07-02 10:29:37 GMT 52.427269 4.511222 8,650 94 303 -1152
2020-07-02 10:29:34 GMT 52.427811 4.498215 8,700 94 304 -1088
2020-07-02 10:29:31 GMT 52.427811 4.498215 8,750 94 304 -1088
2020-07-02 10:29:28 GMT 52.428200 4.490112 8,775 94 304 -1088
2020-07-02 10:29:25 GMT 52.428432 4.484148 8,850 94 305 -1088
2020-07-02 10:29:22 GMT 52.428726 4.477463 8,875 94 305 -1024
2020-07-02 10:29:19 GMT 52.429047 4.470520 8,925 94 305 -896
2020-07-02 10:29:16 GMT 52.429459 4.461077 8,975 94 305 -64
2020-07-02 10:29:12 GMT 52.429825 4.453964 9,000 94 305 -64
2020-07-02 10:29:09 GMT 52.430099 4.447479 9,000 94 306 -64
2020-07-02 10:29:06 GMT 52.430466 4.440613 9,000 94 306 -64
2020-07-02 10:29:03 GMT 52.430832 4.433212 9,000 95 304 -64
2020-07-02 10:29:00 GMT 52.431366 4.423802 9,000 98 303 0
2020-07-02 10:28:57 GMT 52.431553 4.420114 9,000 96 304 -64
2020-07-02 10:28:54 GMT 52.432064 4.412345 9,000 96 303 -64
2020-07-02 10:28:51 GMT 52.432575 4.405518 9,000 97 303 0
2020-07-02 10:28:48 GMT 52.433323 4.396885 9,000 99 303 0
2020-07-02 10:28:45 GMT 52.433788 4.392334 9,000 103 303 0
2020-07-02 10:28:42 GMT 52.434902 4.383388 9,000 104 302 0
2020-07-02 10:28:39 GMT 52.435741 4.378052 9,000 105 302 -64
2020-07-02 10:28:36 GMT 52.436646 4.373016 9,000 108 300 0
2020-07-02 10:28:33 GMT 52.438118 4.365417 9,000 108 300 0
2020-07-02 10:28:30 GMT 52.439621 4.357834 9,000 108 301 -64
2020-07-02 10:28:27 GMT 52.440674 4.352646 9,000 108 301 -64
2020-07-02 10:28:24 GMT 52.441933 4.346427 9,000 108 301 0
2020-07-02 10:28:21 GMT 52.442959 4.341248 9,000 108 301 0
2020-07-02 10:28:18 GMT 52.444473 4.333649 9,000 108 301 0
2020-07-02 10:28:15 GMT 52.445755 4.327164 9,000 108 301 0
2020-07-02 10:28:12 GMT 52.447102 4.320452 9,000 108 301 0
2020-07-02 10:28:09 GMT 52.448124 4.315273 9,000 108 301 0
2020-07-02 10:28:06 GMT 52.449802 4.307033 9,000 108 301 0
2020-07-02 10:28:03 GMT 52.452438 4.293900 9,000 108 300 0
2020-07-02 10:28:00 GMT 52.452438 4.293900 9,000 108 300 0
2020-07-02 10:27:57 GMT 52.453526 4.288513 9,000 108 300 0
2020-07-02 10:27:54 GMT 52.455013 4.281137 9,000 108 300 0
2020-07-02 10:27:51 GMT 52.457577 4.268267 9,000 108 300 0
2020-07-02 10:27:48 GMT 52.457577 4.268267 9,000 108 299 0
2020-07-02 10:27:45 GMT 52.458740 4.262617 9,000 108 299 0
2020-07-02 10:27:42 GMT 52.460182 4.255319 9,000 108 299 0
2020-07-02 10:27:39 GMT 52.462372 4.244308 9,000 108 299 0
2020-07-02 10:27:33 GMT 52.464020 4.236145 9,000 108 300 0
2020-07-02 10:27:30 GMT 52.465393 4.229202 9,000 108 300 0
2020-07-02 10:27:27 GMT 52.466766 4.222260 9,000 108 300 0
2020-07-02 10:27:23 GMT 52.468281 4.214669 9,000 108 300 0
2020-07-02 10:27:20 GMT 52.470936 4.201329 9,000 108 299 64
2020-07-02 10:27:17 GMT 52.472305 4.194641 9,000 108 299 0
2020-07-02 10:27:14 GMT 52.472305 4.194641 9,000 108 299 0
2020-07-02 10:27:11 GMT 52.473495 4.188614 8,975 108 299 0
2020-07-02 10:27:08 GMT 52.474754 4.182338 8,975 108 298 0
2020-07-02 10:27:05 GMT 52.476196 4.175040 9,000 108 298 -64
2020-07-02 10:27:02 GMT 52.477547 4.168134 9,000 108 298 -64
2020-07-02 10:26:59 GMT 52.478714 4.162369 9,000 108 298 -64
2020-07-02 10:26:56 GMT 52.479782 4.156991 9,000 107 298 -64
2020-07-02 10:26:53 GMT 52.481094 4.150314 9,000 107 298 -768
2020-07-02 10:26:50 GMT 52.482342 4.144121 9,000 107 298 -192
2020-07-02 10:26:47 GMT 52.483646 4.137687 9,050 107 298 -576
2020-07-02 10:26:44 GMT 52.484901 4.131173 9,025 107 298 -448
2020-07-02 10:26:41 GMT 52.486404 4.123688 9,050 107 298 -576
2020-07-02 10:26:37 GMT 52.488098 4.115067 9,050 107 298 -768
2020-07-02 10:26:34 GMT 52.489334 4.109039 9,150 108 299 -1216
2020-07-02 10:26:31 GMT 52.490486 4.103237 9,200 108 299 -1216
2020-07-02 10:26:28 GMT 52.492081 4.095230 9,350 108 300 -1152
2020-07-02 10:26:24 GMT 52.493652 4.087228 9,325 107 301 -1152
2020-07-02 10:26:21 GMT 52.495148 4.079590 9,350 107 303 -1088
2020-07-02 10:26:18 GMT 52.496494 4.072867 9,450 107 306 -1280
2020-07-02 10:26:15 GMT 52.497330 4.068551 9,525 107 302 -1280
2020-07-02 10:26:12 GMT 52.498581 4.062195 9,550 107 302 -1216
2020-07-02 10:26:09 GMT 52.500183 4.053879 9,750 107 304 -1088
2020-07-02 10:26:06 GMT 52.502563 4.041595 9,725 107 303 -1088
2020-07-02 10:26:03 GMT 52.502563 4.041595 9,750 107 303 -1088
2020-07-02 10:26:00 GMT 52.503799 4.035034 9,775 107 304 -1152
2020-07-02 10:25:57 GMT 52.504898 4.029312 9,825 107 304 -1152
2020-07-02 10:25:54 GMT 52.506546 4.020462 9,900 107 305 -1216
2020-07-02 10:25:51 GMT 52.507618 4.014954 9,975 107 306 -1216
2020-07-02 10:25:48 GMT 52.508690 4.009225 10,000 107 306 -1280
2020-07-02 10:25:45 GMT 52.510040 4.002084 10,100 107 306 -1280
2020-07-02 10:25:42 GMT 52.511078 3.996582 10,125 107 306 -1280
2020-07-02 10:25:39 GMT 52.512726 3.987656 10,225 106 307 -1344
2020-07-02 10:25:36 GMT 52.513824 3.981857 10,250 106 307 -1344
2020-07-02 10:25:33 GMT 52.516342 3.968048 10,375 106 307 -1344
2020-07-02 10:25:26 GMT 52.517990 3.959122 10,475 106 306 -1408
2020-07-02 10:25:23 GMT 52.519024 3.953587 10,600 106 307 -1280
2020-07-02 10:25:20 GMT 52.521584 3.939305 10,650 106 307 -1216
2020-07-02 10:25:17 GMT 52.521584 3.939305 10,700 106 307 -1152
2020-07-02 10:25:14 GMT 52.522614 3.933716 10,775 106 307 -1024
2020-07-02 10:25:11 GMT 52.523987 3.926086 10,775 106 308 -960
2020-07-02 10:25:08 GMT 52.526230 3.913574 10,850 106 309 -768
2020-07-02 10:25:05 GMT 52.526230 3.913574 10,875 106 310 -704
2020-07-02 10:25:02 GMT 52.527557 3.906326 10,900 106 310 -704
2020-07-02 10:24:59 GMT 52.530487 3.889923 10,950 106 314 -640
2020-07-02 10:24:56 GMT 52.530487 3.889923 11,175 106 325 -576
2020-07-02 10:24:53 GMT 52.531311 3.885345 11,000 106 316 -640
2020-07-02 10:24:50 GMT 52.532501 3.878403 11,000 106 317 -640
2020-07-02 10:24:47 GMT 52.533455 3.873073 11,150 106 318 -640
2020-07-02 10:24:44 GMT 52.534927 3.864975 11,250 106 327 -576
2020-07-02 10:24:41 GMT 52.535980 3.858871 11,125 106 322 -640
2020-07-02 10:24:38 GMT 52.537598 3.849688 11,125 106 323 -640
2020-07-02 10:24:35 GMT 52.538635 3.843842 11,175 106 326 -576
2020-07-02 10:24:32 GMT 52.539974 3.836426 11,200 106 327 -576
2020-07-02 10:24:29 GMT 52.541153 3.829498 11,350 106 329 -640
2020-07-02 10:24:25 GMT 52.542999 3.819240 11,250 105 331 -704
2020-07-02 10:24:22 GMT 52.543976 3.813433 11,300 106 332 -832
2020-07-02 10:24:19 GMT 52.545456 3.804932 11,300 106 332 -832
2020-07-02 10:24:16 GMT 52.546818 3.797346 11,400 105 338 -704
2020-07-02 10:24:13 GMT 52.548164 3.789498 11,400 105 338 -704
2020-07-02 10:24:10 GMT 52.549667 3.780899 11,450 105 341 -768
2020-07-02 10:24:07 GMT 52.550495 3.776158 11,475 106 342 -832
2020-07-02 10:24:04 GMT 52.551865 3.768463 11,500 106 343 -896
2020-07-02 10:24:01 GMT 52.553192 3.760910 12,750 106 353 -832
2020-07-02 10:23:58 GMT 52.554638 3.752537 11,600 106 348 -832
2020-07-02 10:23:55 GMT 52.555984 3.745193 11,625 106 353 -832
2020-07-02 10:23:51 GMT 52.557816 3.734894 11,675 106 356 -832
2020-07-02 10:23:48 GMT 52.559372 3.726044 11,700 106 358 -896
2020-07-02 10:23:45 GMT 52.562027 3.711319 12,175 106 373 -2304
2020-07-02 10:23:42 GMT 52.562027 3.711319 11,825 106 366 -1216
2020-07-02 10:23:39 GMT 52.563263 3.704376 11,875 106 368 -1344
2020-07-02 10:23:36 GMT 52.564785 3.696115 11,925 106 369 -1536
2020-07-02 10:23:33 GMT 52.566929 3.684265 12,050 106 371 -1856
2020-07-02 10:23:29 GMT 52.568253 3.676910 12,150 106 373 -2240
2020-07-02 10:23:26 GMT 52.569904 3.668021 12,250 106 374 -2368
2020-07-02 10:23:23 GMT 52.571533 3.659310 12,700 107 376 -2304
2020-07-02 10:23:20 GMT 52.573025 3.651149 12,500 107 375 -2368
2020-07-02 10:23:17 GMT 52.574699 3.642439 12,625 107 377 -2304
2020-07-02 10:23:14 GMT 52.575668 3.637238 13,225 107 380 -2368
2020-07-02 10:23:11 GMT 52.577263 3.628706 12,925 107 379 -2240
2020-07-02 10:23:08 GMT 52.579170 3.618818 12,925 107 380 -2368
2020-07-02 10:23:05 GMT 52.580753 3.610578 13,000 107 380 -2368
2020-07-02 10:23:02 GMT 52.582104 3.603437 13,225 107 382 -2496
2020-07-02 10:22:59 GMT 52.583733 3.595119 13,325 107 383 -2496
2020-07-02 10:22:56 GMT 52.585316 3.586801 13,450 107 384 -2560
2020-07-02 10:22:52 GMT 52.587570 3.574829 13,625 107 385 -2688
2020-07-02 10:22:49 GMT 52.589630 3.564224 13,750 107 385 -2752
2020-07-02 10:22:46 GMT 52.592377 3.549728 13,925 107 386 -2944
2020-07-02 10:22:43 GMT 52.592377 3.549728 14,000 107 386 -3008
2020-07-02 10:22:40 GMT 52.593742 3.542698 14,125 107 386 -3072
2020-07-02 10:22:37 GMT 52.595398 3.534012 14,300 107 385 -3264
2020-07-02 10:22:34 GMT 52.597092 3.525085 14,400 107 385 -3328
2020-07-02 10:22:31 GMT 52.600388 3.507767 14,650 107 384 -3456
2020-07-02 10:22:28 GMT 52.600388 3.507767 14,850 107 384 -3392
2020-07-02 10:22:25 GMT 52.601990 3.499451 14,950 107 384 -3392
2020-07-02 10:22:22 GMT 52.603683 3.490524 15,075 107 383 -3200
2020-07-02 10:22:19 GMT 52.605053 3.483058 15,275 107 382 -3072
2020-07-02 10:22:16 GMT 52.606636 3.474740 15,525 106 381 -2816
2020-07-02 10:22:13 GMT 52.607941 3.467521 15,600 106 381 -2752
2020-07-02 10:22:10 GMT 52.609707 3.458104 15,675 106 380 -2432
2020-07-02 10:22:07 GMT 52.611282 3.449554 15,875 106 380 -1920
2020-07-02 10:22:04 GMT 52.612827 3.440996 15,900 106 380 -1920
2020-07-02 10:22:01 GMT 52.614395 3.432388 16,000 106 380 -1792
2020-07-02 10:21:58 GMT 52.615631 3.425751 16,075 106 380 -1792
2020-07-02 10:21:55 GMT 52.617554 3.415222 16,200 106 381 -1664
2020-07-02 10:21:52 GMT 52.618599 3.409450 16,300 106 381 -1600
2020-07-02 10:21:49 GMT 52.620323 3.400033 16,300 106 381 -1600
2020-07-02 10:21:46 GMT 52.622406 3.388596 16,575 106 385 -1472
2020-07-02 10:21:43 GMT 52.623093 3.384705 16,475 106 382 -1536
2020-07-02 10:21:40 GMT 52.625015 3.374100 16,550 106 383 -1472
2020-07-02 10:21:36 GMT 52.627258 3.361816 16,675 106 385 -1472
2020-07-02 10:21:33 GMT 52.628769 3.353424 16,750 106 385 -1472
2020-07-02 10:21:30 GMT 52.629726 3.348083 16,775 106 386 -1536
2020-07-02 10:21:27 GMT 52.631790 3.336487 16,900 106 387 -1536
2020-07-02 10:21:24 GMT 52.632938 3.330035 16,950 106 388 -1536
2020-07-02 10:21:21 GMT 52.634674 3.320084 17,375 106 391 -1664
2020-07-02 10:21:18 GMT 52.635864 3.313293 17,075 106 389 -1536
2020-07-02 10:21:15 GMT 52.639130 3.294800 17,375 106 391 -1600
2020-07-02 10:21:12 GMT 52.639130 3.294800 17,325 106 390 -1600
2020-07-02 10:21:08 GMT 52.640900 3.284836 17,425 106 391 -1664
2020-07-02 10:21:05 GMT 52.642529 3.275417 17,425 106 391 -1664
2020-07-02 10:21:02 GMT 52.644855 3.262233 17,500 106 392 -1664
2020-07-02 10:20:59 GMT 52.646904 3.250854 18,425 106 398 -1728
2020-07-02 10:20:56 GMT 52.648624 3.241045 18,300 106 397 -1600
2020-07-02 10:20:53 GMT 52.648624 3.241045 17,800 106 394 -1536
2020-07-02 10:20:50 GMT 52.650021 3.233041 17,925 106 394 -1536
2020-07-02 10:20:47 GMT 52.651611 3.224106 17,925 106 394 -1536
2020-07-02 10:20:44 GMT 52.653030 3.216019 17,975 106 395 -1600
2020-07-02 10:20:41 GMT 52.654537 3.207694 18,875 105 407 -1792
2020-07-02 10:20:38 GMT 52.656097 3.198700 18,150 106 396 -1600
2020-07-02 10:20:35 GMT 52.657658 3.189723 18,175 106 397 -1600
2020-07-02 10:20:32 GMT 52.658936 3.182449 18,300 106 397 -1664
2020-07-02 10:20:29 GMT 52.660812 3.171997 18,400 106 398 -1728
2020-07-02 10:20:26 GMT 52.661987 3.165318 18,500 106 398 -1728
2020-07-02 10:20:23 GMT 52.663971 3.153915 18,625 106 400 -1728
2020-07-02 10:20:19 GMT 52.665806 3.143738 18,650 106 400 -1664
2020-07-02 10:20:16 GMT 52.667850 3.132045 18,775 106 400 -1664
2020-07-02 10:20:12 GMT 52.669388 3.123256 19,275 105 406 -1728
2020-07-02 10:20:09 GMT 52.671432 3.111801 18,925 106 402 -1600
2020-07-02 10:20:06 GMT 52.672668 3.104782 18,975 106 401 -1600
2020-07-02 10:20:03 GMT 52.674545 3.094177 19,100 106 402 -1664
2020-07-02 10:20:00 GMT 52.675812 3.086844 19,225 106 404 -1664
2020-07-02 10:19:57 GMT 52.677429 3.077698 19,350 106 405 -1728
2020-07-02 10:19:54 GMT 52.678986 3.068848 19,350 106 404 -1728
2020-07-02 10:19:50 GMT 52.681213 3.056161 19,475 106 405 -1728
2020-07-02 10:19:47 GMT 52.682701 3.047843 19,725 105 406 -1664
2020-07-02 10:19:44 GMT 52.684425 3.037720 19,725 105 407 -1664
2020-07-02 10:19:41 GMT 52.685680 3.030579 19,750 105 407 -1728
2020-07-02 10:19:38 GMT 52.687122 3.022260 19,800 105 407 -1728
2020-07-02 10:19:35 GMT 52.688427 3.014491 19,875 105 407 -1792
2020-07-02 10:19:32 GMT 52.690247 3.004074 19,975 105 408 -1920
2020-07-02 10:19:29 GMT 52.692059 2.993617 20,050 105 408 -2048
2020-07-02 10:19:26 GMT 52.693317 2.986476 20,225 105 407 -2176
2020-07-02 10:19:22 GMT 52.695457 2.973999 20,425 105 406 -2368
2020-07-02 10:19:19 GMT 52.696884 2.965927 20,800 105 401 -1728
2020-07-02 10:19:16 GMT 52.698483 2.956735 20,550 106 405 -2560
2020-07-02 10:19:13 GMT 52.699833 2.949044 20,650 106 404 -2688
2020-07-02 10:19:10 GMT 52.701553 2.939224 20,850 105 403 -2816
2020-07-02 10:19:07 GMT 52.703384 2.928619 20,950 106 402 -2816
2020-07-02 10:19:04 GMT 52.704620 2.921600 21,325 105 401 -2560
2020-07-02 10:19:01 GMT 52.706303 2.911926 21,275 105 401 -2176
2020-07-02 10:18:58 GMT 52.707642 2.903976 21,375 105 401 -1792
2020-07-02 10:18:55 GMT 52.708912 2.896624 21,400 105 401 -1792
2020-07-02 10:18:52 GMT 52.712311 2.876968 21,550 105 401 -1664
2020-07-02 10:18:49 GMT 52.713985 2.867275 21,650 105 402 -1600
2020-07-02 10:18:46 GMT 52.713985 2.867275 21,750 105 403 -1472
2020-07-02 10:18:43 GMT 52.715424 2.858810 21,750 105 402 -1536
2020-07-02 10:18:40 GMT 52.716919 2.850246 22,075 105 405 -1472
2020-07-02 10:18:37 GMT 52.718719 2.839966 21,925 105 403 -1536
2020-07-02 10:18:34 GMT 52.719990 2.832589 22,050 105 405 -1472
2020-07-02 10:18:31 GMT 52.721466 2.824020 22,050 105 404 -1472
2020-07-02 10:18:28 GMT 52.722977 2.815094 22,125 105 404 -1472
2020-07-02 10:18:25 GMT 52.724350 2.807388 22,150 105 405 -1472
2020-07-02 10:18:22 GMT 52.726044 2.797590 22,275 105 406 -1472
2020-07-02 10:18:19 GMT 52.727486 2.789272 22,350 105 407 -1472
2020-07-02 10:18:16 GMT 52.728973 2.780685 22,400 105 407 -1472
2020-07-02 10:18:13 GMT 52.730652 2.770830 22,500 105 408 -1408
2020-07-02 10:18:10 GMT 52.732605 2.759452 22,550 105 409 -1408
2020-07-02 10:18:07 GMT 52.733864 2.752232 22,650 105 409 -1408
2020-07-02 10:18:04 GMT 52.735214 2.744463 22,700 105 409 -1408
2020-07-02 10:18:01 GMT 52.737259 2.732773 22,800 105 411 -1536
2020-07-02 10:17:58 GMT 52.739170 2.721627 22,900 105 411 -1664
2020-07-02 10:17:55 GMT 52.739868 2.717667 22,950 105 412 -1792
2020-07-02 10:17:52 GMT 52.743126 2.698713 23,075 105 412 -1984
2020-07-02 10:17:49 GMT 52.743126 2.698713 23,150 105 412 -2112
2020-07-02 10:17:46 GMT 52.745270 2.686310 23,300 105 411 -2432
2020-07-02 10:17:43 GMT 52.746506 2.679062 23,375 105 410 -2688
2020-07-02 10:17:40 GMT 52.747688 2.672189 23,450 105 410 -2752
2020-07-02 10:17:37 GMT 52.749599 2.660732 23,650 105 407 -2944
2020-07-02 10:17:33 GMT 52.751598 2.648804 23,750 105 406 -3008
2020-07-02 10:17:30 GMT 52.752869 2.641373 24,150 105 402 -2880
2020-07-02 10:17:27 GMT 52.754333 2.632523 24,125 105 402 -2816
2020-07-02 10:17:24 GMT 52.755791 2.623928 24,250 105 399 -2688
2020-07-02 10:17:21 GMT 52.757046 2.616316 24,350 105 400 -2752
2020-07-02 10:17:18 GMT 52.760239 2.597351 24,550 105 396 -2432
2020-07-02 10:17:15 GMT 52.760239 2.597351 24,650 105 395 -2240
2020-07-02 10:17:12 GMT 52.761841 2.587751 24,725 105 393 -1920
2020-07-02 10:17:09 GMT 52.763031 2.580566 24,850 105 390 -1536
2020-07-02 10:17:06 GMT 52.764446 2.572213 24,900 105 389 -1216
2020-07-02 10:17:03 GMT 52.765659 2.564837 24,975 105 387 -448
2020-07-02 10:17:00 GMT 52.767288 2.555106 25,000 105 387 -320
2020-07-02 10:16:57 GMT 52.770264 2.537231 25,000 105 386 0
2020-07-02 10:16:51 GMT 52.771664 2.528974 24,975 105 386 0
2020-07-02 10:16:48 GMT 52.772968 2.521048 25,000 105 386 -64
2020-07-02 10:16:45 GMT 52.774429 2.512207 25,000 105 385 -64
2020-07-02 10:16:42 GMT 52.776180 2.501744 25,000 105 385 -64
2020-07-02 10:16:39 GMT 52.777542 2.493515 25,000 104 385 64
2020-07-02 10:16:36 GMT 52.778732 2.486115 25,000 104 384 -64
2020-07-02 10:16:33 GMT 52.780014 2.478180 25,000 104 384 0
2020-07-02 10:16:30 GMT 52.781673 2.467686 25,000 104 385 64
2020-07-02 10:16:27 GMT 52.782604 2.462036 25,000 104 384 64
2020-07-02 10:16:24 GMT 52.783951 2.453232 24,975 104 384 64
2020-07-02 10:16:21 GMT 52.785919 2.440796 24,975 104 385 -64
2020-07-02 10:16:18 GMT 52.786793 2.435355 24,975 104 385 -64
2020-07-02 10:16:15 GMT 52.788254 2.425995 24,975 104 384 -64
2020-07-02 10:16:12 GMT 52.789448 2.418326 24,975 104 384 -64
2020-07-02 10:16:09 GMT 52.791000 2.408447 25,000 104 384 -64
2020-07-02 10:16:06 GMT 52.792236 2.400513 25,000 104 384 64
2020-07-02 10:16:03 GMT 52.793308 2.393372 25,000 104 384 64
2020-07-02 10:16:00 GMT 52.794891 2.383499 25,000 104 384 64
2020-07-02 10:15:57 GMT 52.795822 2.377520 24,975 104 384 64
2020-07-02 10:15:54 GMT 52.797409 2.367020 24,975 104 384 -64
2020-07-02 10:15:51 GMT 52.798828 2.357864 24,975 102 385 0
2020-07-02 10:15:48 GMT 52.800385 2.347641 24,975 104 385 -64
2020-07-02 10:15:44 GMT 52.801804 2.338562 24,975 103 385 -64
2020-07-02 10:15:41 GMT 52.803318 2.328003 25,000 103 385 -64
2020-07-02 10:15:38 GMT 52.805466 2.312851 25,000 100 385 0
2020-07-02 10:15:35 GMT 52.805466 2.312851 25,000 102 386 0
2020-07-02 10:15:32 GMT 52.806763 2.302734 25,000 101 385 0
2020-07-02 10:15:29 GMT 52.807602 2.295279 24,975 98 387 -64
2020-07-02 10:15:26 GMT 52.808720 2.284215 24,975 95 388 64
2020-07-02 10:15:23 GMT 52.809219 2.278061 24,975 95 388 64
2020-07-02 10:15:20 GMT 52.809769 2.269821 24,975 94 390 -128
2020-07-02 10:15:17 GMT 52.810162 2.261222 25,000 94 390 -128
2020-07-02 10:15:14 GMT 52.810501 2.252045 25,000 93 389 -128
2020-07-02 10:15:11 GMT 52.810867 2.241364 25,000 93 388 -64
2020-07-02 10:15:08 GMT 52.811325 2.231559 25,000 94 388 64
2020-07-02 10:15:04 GMT 52.811886 2.222220 25,000 99 385 0
2020-07-02 10:15:01 GMT 52.812607 2.214355 24,975 101 384 0
2020-07-02 10:14:58 GMT 52.814072 2.203230 25,000 106 381 0
2020-07-02 10:14:55 GMT 52.815491 2.195129 25,000 109 378 -64
2020-07-02 10:14:52 GMT 52.816727 2.189418 25,000 112 377 0
2020-07-02 10:14:49 GMT 52.818512 2.182159 25,000 113 376 0
2020-07-02 10:14:46 GMT 52.820824 2.174194 24,975 118 373 64
2020-07-02 10:14:43 GMT 52.823410 2.166519 25,000 126 368 64
2020-07-02 10:14:40 GMT 52.826202 2.159348 24,975 125 368 0
2020-07-02 10:14:37 GMT 52.829716 2.151437 25,000 127 367 0
2020-07-02 10:14:34 GMT 52.832657 2.145691 24,975 133 364 64
2020-07-02 10:14:31 GMT 52.840096 2.133310 25,000 136 362 0
2020-07-02 10:14:28 GMT 52.840096 2.133310 25,000 143 358 0
2020-07-02 10:14:25 GMT 52.845383 2.126236 24,975 144 357 0
2020-07-02 10:14:22 GMT 52.847916 2.123186 24,975 146 356 0
2020-07-02 10:14:19 GMT 52.851974 2.118912 24,975 151 354 64
2020-07-02 10:14:16 GMT 52.856949 2.114319 25,000 153 353 64
2020-07-02 10:14:13 GMT 52.860764 2.111180 24,975 155 352 0
2020-07-02 10:14:10 GMT 52.870121 2.105216 24,975 163 348 0
2020-07-02 10:14:07 GMT 52.870121 2.105216 24,975 163 348 0
2020-07-02 10:14:04 GMT 52.874779 2.103019 25,000 166 347 -64
2020-07-02 10:14:01 GMT 52.880219 2.100983 24,975 228 329 -64
2020-07-02 10:13:58 GMT 52.884178 2.099958 24,975 174 343 0
2020-07-02 10:13:55 GMT 52.890186 2.098860 25,000 177 342 -64
2020-07-02 10:13:52 GMT 52.895050 2.098618 25,000 178 341 0
2020-07-02 10:13:49 GMT 52.898209 2.098618 25,000 184 339 0
2020-07-02 10:13:46 GMT 52.902756 2.099016 25,000 187 338 0
2020-07-02 10:13:43 GMT 52.907227 2.099915 25,000 188 338 -64
2020-07-02 10:13:40 GMT 52.911850 2.101135 25,000 193 336 0
2020-07-02 10:13:37 GMT 52.921047 2.104902 25,000 198 334 0
2020-07-02 10:13:31 GMT 52.925705 2.107570 24,975 202 333 0
2020-07-02 10:13:28 GMT 52.929245 2.109985 24,975 215 331 -64
2020-07-02 10:13:25 GMT 52.934830 2.114334 24,975 208 332 -64
2020-07-02 10:13:22 GMT 52.938183 2.117379 24,975 213 331 -64
2020-07-02 10:13:19 GMT 52.941856 2.121068 25,000 215 331 -64
2020-07-02 10:13:16 GMT 52.945770 2.125549 25,000 217 330 0
2020-07-02 10:13:13 GMT 52.949158 2.129898 25,000 220 330 -64
2020-07-02 10:13:10 GMT 52.953964 2.136841 25,000 225 329 -64
2020-07-02 10:13:07 GMT 52.955826 2.139823 25,000 227 328 -64
2020-07-02 10:13:04 GMT 52.958942 2.145394 25,000 230 329 -64
2020-07-02 10:13:01 GMT 52.961975 2.151337 25,000 232 328 -64
2020-07-02 10:12:58 GMT 52.964622 2.157166 25,000 235 329 -64
2020-07-02 10:12:55 GMT 52.966782 2.162323 25,000 241 328 -64
2020-07-02 10:12:52 GMT 52.969757 2.170486 25,000 244 328 -64
2020-07-02 10:12:49 GMT 52.971790 2.176941 25,000 246 328 -64
2020-07-02 10:12:46 GMT 52.975468 2.191302 25,000 249 328 0
2020-07-02 10:12:43 GMT 52.975468 2.191302 25,000 252 329 0
2020-07-02 10:12:40 GMT 52.976818 2.198050 25,000 257 330 64
2020-07-02 10:12:37 GMT 52.977982 2.204878 24,975 258 330 64
2020-07-02 10:12:34 GMT 52.979050 2.212982 24,975 260 331 64
2020-07-02 10:12:31 GMT 52.979939 2.222848 24,975 266 333 64
2020-07-02 10:12:28 GMT 52.980171 2.227870 24,975 268 334 0
2020-07-02 10:12:25 GMT 52.980309 2.235561 24,975 271 335 -64
2020-07-02 10:12:22 GMT 52.980125 2.244821 24,975 274 336 -64
2020-07-02 10:12:19 GMT 52.979874 2.251282 24,975 275 337 -64
2020-07-02 10:12:16 GMT 52.979378 2.260280 25,000 276 337 0
2020-07-02 10:12:13 GMT 52.979099 2.265381 24,975 276 337 -64
2020-07-02 10:12:10 GMT 52.978592 2.275391 25,000 276 337 -64
2020-07-02 10:12:07 GMT 52.978271 2.281036 24,975 276 337 -64
2020-07-02 10:12:04 GMT 52.977703 2.291591 25,000 275 337 -64
2020-07-02 10:12:01 GMT 52.977448 2.296448 25,000 275 336 -64
2020-07-02 10:11:58 GMT 52.976944 2.306747 24,975 275 336 -64
2020-07-02 10:11:55 GMT 52.976624 2.312927 24,975 275 336 -64
2020-07-02 10:11:52 GMT 52.976215 2.320312 25,000 275 336 -64
2020-07-02 10:11:49 GMT 52.975800 2.327805 24,975 275 336 0
2020-07-02 10:11:46 GMT 52.975433 2.335434 24,975 275 336 -64
2020-07-02 10:11:43 GMT 52.974976 2.344208 24,975 275 336 -64
2020-07-02 10:11:40 GMT 52.974564 2.351837 24,975 275 336 -64
2020-07-02 10:11:37 GMT 52.974072 2.360805 24,975 275 336 -64
2020-07-02 10:11:34 GMT 52.973701 2.368025 24,975 275 336 -64
2020-07-02 10:11:31 GMT 52.973328 2.375412 24,975 275 336 -64
2020-07-02 10:11:28 GMT 52.973007 2.381592 24,975 275 336 -64
2020-07-02 10:11:25 GMT 52.972504 2.390823 24,975 275 336 -64
2020-07-02 10:11:22 GMT 52.972137 2.397461 24,975 275 336 -64
2020-07-02 10:11:19 GMT 52.971790 2.404436 24,975 275 336 -64
2020-07-02 10:11:16 GMT 52.971313 2.413330 24,975 275 336 -64
2020-07-02 10:11:13 GMT 52.970860 2.422328 24,975 275 335 -64
2020-07-02 10:11:10 GMT 52.970535 2.428449 24,975 275 336 -64
2020-07-02 10:11:07 GMT 52.970207 2.434570 24,975 275 335 -64
2020-07-02 10:11:04 GMT 52.969757 2.443008 24,975 276 335 -64
2020-07-02 10:11:01 GMT 52.969231 2.453012 24,975 276 335 0
2020-07-02 10:10:58 GMT 52.968842 2.459412 24,975 276 335 0
2020-07-02 10:10:55 GMT 52.968475 2.466049 24,975 276 335 -64
2020-07-02 10:10:52 GMT 52.967602 2.482204 24,975 276 335 -64
2020-07-02 10:10:49 GMT 52.967602 2.482204 24,975 276 335 -64
2020-07-02 10:10:46 GMT 52.967136 2.489816 24,975 276 335 -128
2020-07-02 10:10:43 GMT 52.966717 2.498056 25,000 279 335 0
2020-07-02 10:10:40 GMT 52.966251 2.505668 25,000 275 335 -64
2020-07-02 10:10:37 GMT 52.965832 2.513829 24,975 291 340 0
2020-07-02 10:10:34 GMT 52.965500 2.520218 25,000 275 334 -64
2020-07-02 10:10:31 GMT 52.965088 2.527924 25,000 276 334 0
2020-07-02 10:10:28 GMT 52.964630 2.535553 24,975 278 334 0
2020-07-02 10:10:25 GMT 52.964016 2.542864 25,000 281 335 0
2020-07-02 10:10:22 GMT 52.962994 2.551496 25,000 284 337 64
2020-07-02 10:10:19 GMT 52.961967 2.558010 24,975 289 339 64
2020-07-02 10:10:16 GMT 52.958633 2.573929 24,975 291 340 0
2020-07-02 10:10:13 GMT 52.958633 2.573929 24,975 294 342 -64
2020-07-02 10:10:10 GMT 52.957409 2.578491 24,975 297 344 -64
2020-07-02 10:10:07 GMT 52.954708 2.587437 24,975 299 345 -64
2020-07-02 10:10:04 GMT 52.951630 2.595825 24,975 305 348 -64
2020-07-02 10:10:00 GMT 52.949295 2.601547 24,975 308 350 -64
2020-07-02 10:09:57 GMT 52.945084 2.610474 25,000 314 354 -64
2020-07-02 10:09:54 GMT 52.942417 2.615531 25,000 318 357 -64
2020-07-02 10:09:51 GMT 52.939041 2.621078 25,000 317 356 -64
2020-07-02 10:09:48 GMT 52.935379 2.626572 25,000 321 359 -64
2020-07-02 10:09:45 GMT 52.927242 2.636640 25,000 326 363 -64
2020-07-02 10:09:42 GMT 52.927242 2.636640 25,000 344 375 -64
2020-07-02 10:09:39 GMT 52.923515 2.640485 25,000 333 367 -64
2020-07-02 10:09:36 GMT 52.917664 2.645645 25,000 336 369 -64
2020-07-02 10:09:33 GMT 52.914440 2.648097 25,000 337 370 -128
2020-07-02 10:09:30 GMT 52.903564 2.654495 25,000 358 384 -64
2020-07-02 10:09:27 GMT 52.903564 2.654495 25,000 347 377 -64
2020-07-02 10:09:24 GMT 52.898331 2.656651 25,000 348 378 -64
2020-07-02 10:09:21 GMT 52.893311 2.658157 25,000 358 384 -64
2020-07-02 10:09:18 GMT 52.887859 2.659241 25,000 358 384 -64
2020-07-02 10:09:15 GMT 52.883297 2.659712 25,000 0 386 -64
2020-07-02 10:09:12 GMT 52.878269 2.659712 25,000 27 403 320
2020-07-02 10:09:09 GMT 52.873077 2.659149 25,025 28 405 320
2020-07-02 10:09:06 GMT 52.867142 2.657907 25,025 14 396 -64
2020-07-02 10:09:03 GMT 52.860214 2.655563 25,025 15 396 -64
2020-07-02 10:09:00 GMT 52.856689 2.653961 25,025 16 397 -64
2020-07-02 10:08:57 GMT 52.851425 2.651062 25,000 22 401 128
2020-07-02 10:08:54 GMT 52.846298 2.647629 25,425 101 456 -448
2020-07-02 10:08:51 GMT 52.840794 2.643232 25,000 28 405 320
2020-07-02 10:08:48 GMT 52.831482 2.633815 24,950 33 407 320
2020-07-02 10:08:45 GMT 52.831482 2.633815 24,950 62 432 64
2020-07-02 10:08:42 GMT 52.826641 2.627773 24,975 65 434 128
2020-07-02 10:08:38 GMT 52.820404 2.618434 24,950 46 420 128
2020-07-02 10:08:35 GMT 52.816544 2.611618 24,950 49 422 64
2020-07-02 10:08:32 GMT 52.813934 2.606428 24,975 52 424 64
2020-07-02 10:08:29 GMT 52.810162 2.598110 24,975 56 427 64
2020-07-02 10:08:26 GMT 52.806625 2.588614 24,975 62 432 64
2020-07-02 10:08:22 GMT 52.803181 2.577471 24,975 68 435 64
2020-07-02 10:08:19 GMT 52.800934 2.568588 24,975 71 437 0
2020-07-02 10:08:16 GMT 52.799034 2.558794 24,975 77 439 -192
2020-07-02 10:08:13 GMT 52.797638 2.549691 25,000 81 440 -320
2020-07-02 10:08:10 GMT 52.796616 2.538391 24,975 83 440 -384
2020-07-02 10:08:07 GMT 52.796219 2.530060 25,375 101 455 -448
2020-07-02 10:08:04 GMT 52.796150 2.520342 25,050 95 440 -960
2020-07-02 10:08:01 GMT 52.796616 2.508885 25,075 97 441 -1152
2020-07-02 10:07:58 GMT 52.797684 2.497253 25,125 99 443 -1088
2020-07-02 10:07:55 GMT 52.798691 2.488632 25,200 101 445 -896
2020-07-02 10:07:52 GMT 52.799828 2.478986 25,225 101 449 -576
2020-07-02 10:07:49 GMT 52.800888 2.470627 25,250 101 449 -512
2020-07-02 10:07:46 GMT 52.803452 2.449799 25,275 101 451 -448
2020-07-02 10:07:40 GMT 52.804962 2.437668 25,325 101 452 -448
2020-07-02 10:07:37 GMT 52.806438 2.425860 25,325 101 453 -448
2020-07-02 10:07:34 GMT 52.807205 2.419434 25,350 101 453 -448
2020-07-02 10:07:31 GMT 52.808998 2.404829 25,375 101 454 -448
2020-07-02 10:07:25 GMT 52.811047 2.388585 25,400 101 455 -448
2020-07-02 10:07:22 GMT 52.812210 2.379089 25,600 101 459 -832
2020-07-02 10:07:19 GMT 52.814026 2.364426 25,475 101 456 -448
2020-07-02 10:07:16 GMT 52.814850 2.357635 25,475 101 457 -448
2020-07-02 10:07:13 GMT 52.817329 2.337498 25,525 101 457 -512
2020-07-02 10:07:10 GMT 52.817329 2.337498 25,850 101 458 -512
2020-07-02 10:07:07 GMT 52.819984 2.315604 25,550 101 458 -576
2020-07-02 10:07:04 GMT 52.819984 2.315604 25,575 101 458 -576
2020-07-02 10:07:01 GMT 52.821194 2.306030 25,625 101 459 -768
2020-07-02 10:06:58 GMT 52.822220 2.297440 25,650 101 459 -768
2020-07-02 10:06:55 GMT 52.825287 2.272720 25,700 101 459 -768
2020-07-02 10:06:52 GMT 52.825287 2.272720 25,725 101 459 -832
2020-07-02 10:06:49 GMT 52.826111 2.265854 26,025 101 461 -768
2020-07-02 10:06:46 GMT 52.827896 2.251434 25,800 101 460 -768
2020-07-02 10:06:43 GMT 52.828720 2.244568 25,825 101 460 -704
2020-07-02 10:06:40 GMT 52.830040 2.233913 25,875 101 461 -704
2020-07-02 10:06:37 GMT 52.831329 2.223282 25,900 101 460 -704
2020-07-02 10:06:34 GMT 52.832787 2.211234 25,925 101 460 -704
2020-07-02 10:06:31 GMT 52.833904 2.202288 25,975 101 460 -768
2020-07-02 10:06:28 GMT 52.835159 2.191929 26,025 101 461 -768
2020-07-02 10:06:25 GMT 52.836273 2.182617 26,050 101 461 -768
2020-07-02 10:06:22 GMT 52.837784 2.170181 26,075 101 461 -768
2020-07-02 10:06:19 GMT 52.839111 2.159119 26,125 101 461 -768
2020-07-02 10:06:15 GMT 52.840668 2.145996 26,175 101 462 -704
2020-07-02 10:06:12 GMT 52.841995 2.134933 26,250 101 462 -704
2020-07-02 10:06:09 GMT 52.843414 2.123184 26,250 101 462 -704
2020-07-02 10:06:06 GMT 52.844193 2.116928 26,300 101 463 -704
2020-07-02 10:06:03 GMT 52.845245 2.107925 26,350 101 464 -704
2020-07-02 10:06:00 GMT 52.846756 2.095413 26,350 101 464 -704
2020-07-02 10:05:57 GMT 52.847855 2.086411 26,375 101 464 -704
2020-07-02 10:05:54 GMT 52.849407 2.073512 26,400 101 464 -768
2020-07-02 10:05:51 GMT 52.850384 2.065194 26,450 101 464 -768
2020-07-02 10:05:48 GMT 52.851826 2.053345 26,475 101 464 -832
2020-07-02 10:05:45 GMT 52.853119 2.042618 26,525 101 465 -768
2020-07-02 10:05:42 GMT 52.853970 2.035296 26,575 101 465 -768
2020-07-02 10:05:39 GMT 52.855453 2.023087 26,600 101 465 -768
2020-07-02 10:05:36 GMT 52.856712 2.012303 26,625 101 465 -768
2020-07-02 10:05:33 GMT 52.859276 1.990644 26,700 101 466 -768
2020-07-02 10:05:30 GMT 52.859276 1.990644 26,725 101 466 -704
2020-07-02 10:05:27 GMT 52.860626 1.979422 26,750 101 466 -704
2020-07-02 10:05:24 GMT 52.861649 1.971104 26,775 101 466 -704
2020-07-02 10:05:21 GMT 52.862823 1.960907 26,850 101 467 -704
2020-07-02 10:05:18 GMT 52.864491 1.947248 26,875 101 467 -768
2020-07-02 10:05:15 GMT 52.865616 1.937790 26,900 101 468 -768
2020-07-02 10:05:12 GMT 52.866577 1.929398 26,950 101 468 -768
2020-07-02 10:05:09 GMT 52.867859 1.918869 26,975 101 468 -768
2020-07-02 10:05:06 GMT 52.868912 1.909714 27,000 101 468 -704
2020-07-02 10:05:03 GMT 52.870514 1.896362 27,050 101 469 -640
2020-07-02 10:05:00 GMT 52.871796 1.885489 27,150 101 471 -704
2020-07-02 10:04:57 GMT 52.873398 1.872482 27,125 101 469 -704
2020-07-02 10:04:54 GMT 52.875427 1.855198 27,150 101 471 -704
2020-07-02 10:04:51 GMT 52.876923 1.842880 27,200 101 471 -768
2020-07-02 10:04:48 GMT 52.876923 1.842880 27,225 101 471 -832
2020-07-02 10:04:45 GMT 52.878174 1.832676 27,250 101 471 -832
2020-07-02 10:04:42 GMT 52.880585 1.812515 27,325 101 471 -832
2020-07-02 10:04:39 GMT 52.881866 1.801987 27,350 100 472 -832
2020-07-02 10:04:36 GMT 52.881866 1.801987 27,400 101 471 -768
2020-07-02 10:04:33 GMT 52.882919 1.792755 27,500 100 472 -832
2020-07-02 10:04:30 GMT 52.884228 1.781747 27,500 100 472 -832
2020-07-02 10:04:27 GMT 52.886879 1.759147 27,525 100 472 -768
2020-07-02 10:04:24 GMT 52.886879 1.759147 27,575 100 473 -704
2020-07-02 10:04:21 GMT 52.887955 1.750259 27,625 100 473 -640
2020-07-02 10:04:18 GMT 52.889210 1.739293 27,600 100 473 -704
2020-07-02 10:04:15 GMT 52.892258 1.713333 27,825 100 475 -768
2020-07-02 10:04:12 GMT 52.892258 1.713333 27,700 100 474 -768
2020-07-02 10:04:09 GMT 52.893173 1.705551 27,700 100 474 -832
2020-07-02 10:04:06 GMT 52.894188 1.696681 27,750 100 474 -896
2020-07-02 10:04:03 GMT 52.895508 1.685638 27,825 101 475 -896
2020-07-02 10:04:00 GMT 52.896835 1.674271 27,825 101 474 -768
2020-07-02 10:03:57 GMT 52.898239 1.662545 27,850 101 474 -768
2020-07-02 10:03:54 GMT 52.899216 1.653992 27,900 101 474 -832
2020-07-02 10:03:51 GMT 52.900475 1.643319 27,975 101 475 -896
2020-07-02 10:03:48 GMT 52.901688 1.632996 28,000 101 475 -896
2020-07-02 10:03:45 GMT 52.903313 1.619071 28,050 100 475 -768
2020-07-02 10:03:42 GMT 52.904205 1.611557 28,075 100 475 -768
2020-07-02 10:03:39 GMT 52.905441 1.600876 28,100 100 476 -704
2020-07-02 10:03:36 GMT 52.906898 1.588388 28,125 100 476 -576
2020-07-02 10:03:33 GMT 52.908417 1.575089 28,175 100 477 -512
2020-07-02 10:03:30 GMT 52.909599 1.564689 28,200 100 478 -512
2020-07-02 10:03:27 GMT 52.910435 1.557547 28,225 100 478 -512
2020-07-02 10:03:24 GMT 52.911713 1.546402 28,275 100 478 -512
2020-07-02 10:03:21 GMT 52.912994 1.535261 28,275 100 479 -512
2020-07-02 10:03:18 GMT 52.915417 1.514387 28,325 100 480 -512
2020-07-02 10:03:15 GMT 52.915417 1.514387 28,350 100 481 -512
2020-07-02 10:03:12 GMT 52.917068 1.500320 28,350 100 481 -512
2020-07-02 10:03:09 GMT 52.918076 1.491699 28,375 100 482 -576
2020-07-02 10:03:06 GMT 52.919357 1.480789 28,400 100 483 -576
2020-07-02 10:03:03 GMT 52.920818 1.468166 28,425 100 483 -576
2020-07-02 10:03:00 GMT 52.921692 1.460495 28,450 100 484 -576
2020-07-02 10:02:57 GMT 52.922928 1.449585 28,475 100 484 -576
2020-07-02 10:02:54 GMT 52.924347 1.437225 28,525 100 485 -640
2020-07-02 10:02:51 GMT 52.925537 1.427002 28,550 100 486 -640
2020-07-02 10:02:48 GMT 52.927139 1.413116 28,575 100 486 -640
2020-07-02 10:02:45 GMT 52.928173 1.403974 28,625 100 487 -704
2020-07-02 10:02:42 GMT 52.929756 1.390084 28,675 100 488 -768
2020-07-02 10:02:39 GMT 52.930618 1.382370 28,675 100 488 -832
2020-07-02 10:02:36 GMT 52.932037 1.369934 28,725 100 489 -1024
2020-07-02 10:02:33 GMT 52.932968 1.361441 28,775 100 489 -1152
2020-07-02 10:02:30 GMT 52.934456 1.348258 28,825 100 489 -1280
2020-07-02 10:02:27 GMT 52.935471 1.339035 28,900 100 489 -1280
2020-07-02 10:02:24 GMT 52.937157 1.324009 29,000 100 488 -1216
2020-07-02 10:02:21 GMT 52.937943 1.316986 29,150 100 488 -1088
2020-07-02 10:02:18 GMT 52.939545 1.303101 29,075 100 488 -1152
2020-07-02 10:02:15 GMT 52.940369 1.295700 29,175 100 488 -1024
2020-07-02 10:02:12 GMT 52.941696 1.283951 29,200 100 489 -960
2020-07-02 10:02:09 GMT 52.942932 1.272964 29,275 100 489 -768
2020-07-02 10:02:06 GMT 52.944233 1.261623 29,275 100 489 -768
2020-07-02 10:02:03 GMT 52.946823 1.239166 29,350 100 490 -704
2020-07-02 10:02:00 GMT 52.946823 1.239166 29,375 100 490 -768
2020-07-02 10:01:57 GMT 52.948059 1.228104 29,400 100 491 -896
2020-07-02 10:01:54 GMT 52.949863 1.212263 29,450 100 491 -1024
2020-07-02 10:01:51 GMT 52.950668 1.205215 29,475 100 491 -1152
2020-07-02 10:01:48 GMT 52.951721 1.195602 29,525 100 491 -1152
2020-07-02 10:01:45 GMT 52.953232 1.182327 29,600 100 491 -1088
2020-07-02 10:01:42 GMT 52.954426 1.171613 30,075 100 497 -1152
2020-07-02 10:01:39 GMT 52.955612 1.160889 29,700 100 492 -832
2020-07-02 10:01:36 GMT 52.956940 1.149405 29,750 100 492 -704
2020-07-02 10:01:33 GMT 52.957966 1.140538 29,775 100 493 -704
2020-07-02 10:01:30 GMT 52.959595 1.126099 29,825 100 494 -832
2020-07-02 10:01:27 GMT 52.960899 1.114563 29,850 100 494 -832
2020-07-02 10:01:24 GMT 52.961735 1.107186 29,875 100 494 -832
2020-07-02 10:01:21 GMT 52.963459 1.092276 29,900 100 495 -960
2020-07-02 10:01:18 GMT 52.964390 1.084115 29,975 100 495 -1280
2020-07-02 10:01:15 GMT 52.965599 1.072893 30,000 100 495 -1344
2020-07-02 10:01:12 GMT 52.967045 1.060259 30,100 100 495 -1472
2020-07-02 10:01:09 GMT 52.968067 1.050607 30,500 100 494 -1536
2020-07-02 10:01:06 GMT 52.969231 1.040170 30,275 100 494 -1280
2020-07-02 10:01:03 GMT 52.970303 1.030439 30,300 100 494 -1536
2020-07-02 10:01:00 GMT 52.971863 1.016006 30,400 100 494 -1472
2020-07-02 10:00:57 GMT 52.973053 1.005554 30,475 100 494 -1344
2020-07-02 10:00:54 GMT 52.974304 0.994027 30,550 100 494 -1344
2020-07-02 10:00:51 GMT 52.975700 0.981393 30,625 100 494 -1216
2020-07-02 10:00:48 GMT 52.976715 0.972137 30,675 100 494 -1024
2020-07-02 10:00:45 GMT 52.977982 0.960597 30,725 100 494 -1024
2020-07-02 10:00:42 GMT 52.979565 0.946472 30,875 100 494 -960
2020-07-02 10:00:39 GMT 52.980606 0.937195 30,825 100 494 -896
2020-07-02 10:00:35 GMT 52.983383 0.912258 30,900 100 495 -832
2020-07-02 10:00:32 GMT 52.983383 0.912258 30,950 100 495 -768
2020-07-02 10:00:29 GMT 52.984772 0.899963 30,950 100 496 -768
2020-07-02 10:00:26 GMT 52.985806 0.890677 30,975 100 496 -768
2020-07-02 10:00:23 GMT 52.987152 0.878671 31,025 100 497 -832
2020-07-02 10:00:20 GMT 52.988251 0.868607 31,075 100 497 -832
2020-07-02 10:00:17 GMT 52.989441 0.858154 31,200 100 497 -1152
2020-07-02 10:00:14 GMT 52.990692 0.846497 31,150 100 498 -1088
2020-07-02 10:00:11 GMT 52.993160 0.823975 31,250 100 498 -1280
2020-07-02 10:00:05 GMT 52.994926 0.807495 31,350 100 497 -1472
2020-07-02 10:00:02 GMT 52.995674 0.800746 31,400 100 497 -1600
2020-07-02 09:59:59 GMT 52.996994 0.788345 31,475 100 497 -1664
2020-07-02 09:59:56 GMT 52.998093 0.778224 31,525 100 496 -1792
2020-07-02 09:59:53 GMT 52.999210 0.767787 31,675 100 495 -1984
2020-07-02 09:59:50 GMT 53.000702 0.754013 31,750 100 494 -2048
2020-07-02 09:59:47 GMT 53.001911 0.742440 31,800 100 494 -2048
2020-07-02 09:59:44 GMT 53.004284 0.720154 32,000 100 492 -1728
2020-07-02 09:59:41 GMT 53.004284 0.720154 32,050 100 492 -1600
2020-07-02 09:59:38 GMT 53.005356 0.710502 32,100 100 495 -768
2020-07-02 09:59:35 GMT 53.006428 0.700143 32,125 100 491 -1408
2020-07-02 09:59:32 GMT 53.007980 0.685654 32,275 99 491 -1152
2020-07-02 09:59:29 GMT 53.008987 0.676041 32,300 99 491 -1152
2020-07-02 09:59:26 GMT 53.010197 0.664594 32,375 99 491 -1152
2020-07-02 09:59:23 GMT 53.011368 0.653839 32,400 99 491 -1088
2020-07-02 09:59:20 GMT 53.012283 0.644913 32,450 99 491 -1088
2020-07-02 09:59:17 GMT 53.013550 0.633440 32,525 100 491 -896
2020-07-02 09:59:14 GMT 53.016388 0.606759 32,575 100 492 -704
2020-07-02 09:59:11 GMT 53.016388 0.606759 32,600 100 492 -640
2020-07-02 09:59:08 GMT 53.017506 0.596322 32,625 100 492 -640
2020-07-02 09:59:05 GMT 53.018295 0.588946 32,650 100 493 -640
2020-07-02 09:59:02 GMT 53.019695 0.576311 32,675 100 493 -704
2020-07-02 09:58:59 GMT 53.020905 0.565090 32,725 100 494 -960
2020-07-02 09:58:56 GMT 53.022171 0.553513 32,875 100 494 -1088
2020-07-02 09:58:53 GMT 53.023315 0.543137 32,825 100 494 -1088
2020-07-02 09:58:50 GMT 53.024536 0.531503 32,875 100 495 -1024
2020-07-02 09:58:47 GMT 53.025513 0.522557 32,925 100 495 -768
2020-07-02 09:58:44 GMT 53.026932 0.509491 32,950 100 495 -768
2020-07-02 09:58:41 GMT 53.029175 0.488586 32,975 99 496 -256
2020-07-02 09:58:38 GMT 53.029175 0.488586 33,000 99 497 -64
2020-07-02 09:58:35 GMT 53.030365 0.477371 33,000 99 496 -192
2020-07-02 09:58:32 GMT 53.032974 0.452652 33,000 100 497 -128
2020-07-02 09:58:29 GMT 53.032974 0.452652 33,000 100 497 -128
2020-07-02 09:58:26 GMT 53.033985 0.443220 33,000 99 497 -64
2020-07-02 09:58:23 GMT 53.035400 0.430145 33,000 99 497 -128
2020-07-02 09:58:20 GMT 53.036358 0.420698 33,000 99 497 0
2020-07-02 09:58:17 GMT 53.037735 0.407562 33,000 99 497 -64
2020-07-02 09:58:14 GMT 53.038834 0.397110 32,975 99 497 0
2020-07-02 09:58:11 GMT 53.040161 0.384293 33,000 99 497 0
2020-07-02 09:58:08 GMT 53.042450 0.362549 33,000 99 497 -64
2020-07-02 09:58:05 GMT 53.042450 0.362549 33,000 99 497 -64
2020-07-02 09:58:02 GMT 53.043411 0.353546 33,000 99 496 0
2020-07-02 09:57:59 GMT 53.044460 0.343401 33,000 99 496 0
2020-07-02 09:57:56 GMT 53.045902 0.329197 32,975 99 494 0
2020-07-02 09:57:53 GMT 53.046833 0.320251 32,975 99 496 0
2020-07-02 09:57:50 GMT 53.048325 0.305969 33,000 99 495 -64
2020-07-02 09:57:47 GMT 53.049488 0.294747 32,975 99 495 64
2020-07-02 09:57:44 GMT 53.050507 0.285416 33,000 99 495 64
2020-07-02 09:57:41 GMT 53.051537 0.275364 32,975 99 494 0
2020-07-02 09:57:38 GMT 53.053120 0.260454 33,000 99 494 0
2020-07-02 09:57:35 GMT 53.054169 0.250397 33,000 99 494 0
2020-07-02 09:57:32 GMT 53.055119 0.241071 32,975 99 494 -64
2020-07-02 09:57:29 GMT 53.056469 0.228359 33,000 99 494 0
2020-07-02 09:57:26 GMT 53.057419 0.219040 33,000 99 494 -64
2020-07-02 09:57:23 GMT 53.058655 0.207138 33,000 99 494 0
2020-07-02 09:57:20 GMT 53.059799 0.195923 32,975 99 493 -64
2020-07-02 09:57:17 GMT 53.061264 0.181808 33,000 99 493 -64
2020-07-02 09:57:14 GMT 53.062042 0.174332 32,975 99 493 -64
2020-07-02 09:57:11 GMT 53.063267 0.162833 33,000 99 493 0
2020-07-02 09:57:08 GMT 53.064606 0.149765 33,000 99 493 -64
2020-07-02 09:57:05 GMT 53.065567 0.140839 33,000 99 493 64
2020-07-02 09:57:02 GMT 53.066940 0.127411 33,000 99 493 64
2020-07-02 09:56:59 GMT 53.067875 0.118103 33,000 99 493 64
2020-07-02 09:56:56 GMT 53.070435 0.093541 32,975 99 493 128
2020-07-02 09:56:53 GMT 53.070435 0.093541 32,975 99 493 128
2020-07-02 09:56:50 GMT 53.071461 0.083104 32,975 99 493 128
2020-07-02 09:56:47 GMT 53.072617 0.072327 32,975 99 493 64
2020-07-02 09:56:44 GMT 53.073692 0.061523 32,975 99 494 0
2020-07-02 09:56:41 GMT 53.075043 0.048447 32,975 99 494 -64
2020-07-02 09:56:38 GMT 53.076370 0.035782 32,975 99 494 -64
2020-07-02 09:56:35 GMT 53.077148 0.028305 33,000 99 495 -64
2020-07-02 09:56:32 GMT 53.078720 0.013027 33,000 99 495 -128
2020-07-02 09:56:29 GMT 53.079235 0.007769 33,000 99 495 -64
2020-07-02 09:56:26 GMT 53.080811 -0.007629 33,000 99 495 -64
2020-07-02 09:56:23 GMT 53.081699 -0.016244 33,000 99 495 -64
2020-07-02 09:56:20 GMT 53.082821 -0.027466 33,000 99 495 -64
2020-07-02 09:56:17 GMT 53.083981 -0.038688 33,000 99 495 -64
2020-07-02 09:56:14 GMT 53.085297 -0.051804 33,000 99 495 -64
2020-07-02 09:56:11 GMT 53.086533 -0.063858 33,000 99 495 -128
2020-07-02 09:56:08 GMT 53.087662 -0.074707 33,000 99 495 -64
2020-07-02 09:56:05 GMT 53.088776 -0.085602 33,000 99 494 0
2020-07-02 09:56:02 GMT 53.089615 -0.094247 33,000 99 495 -64
2020-07-02 09:55:59 GMT 53.091110 -0.108871 33,000 99 495 -64
2020-07-02 09:55:56 GMT 53.092255 -0.120087 33,000 99 495 -64
2020-07-02 09:55:53 GMT 53.093060 -0.127912 33,000 99 494 0
2020-07-02 09:55:50 GMT 53.095341 -0.150416 32,975 99 494 0
2020-07-02 09:55:47 GMT 53.095341 -0.150416 32,975 99 494 0
2020-07-02 09:55:44 GMT 53.097111 -0.167622 33,000 99 493 -128
2020-07-02 09:55:41 GMT 53.097622 -0.172792 32,975 99 493 -64
2020-07-02 09:55:38 GMT 53.099991 -0.196341 32,975 99 493 -64
2020-07-02 09:55:35 GMT 53.099991 -0.196341 33,000 99 493 -64
2020-07-02 09:55:32 GMT 53.101299 -0.209386 33,000 99 492 -64
2020-07-02 09:55:29 GMT 53.102371 -0.220197 33,000 99 492 -64
2020-07-02 09:55:26 GMT 53.103287 -0.229143 33,000 99 492 -128
2020-07-02 09:55:23 GMT 53.104614 -0.242562 33,000 99 492 -64
2020-07-02 09:55:20 GMT 53.105484 -0.251508 33,000 99 491 -64
2020-07-02 09:55:17 GMT 53.107864 -0.275364 33,000 99 491 0
2020-07-02 09:55:14 GMT 53.107864 -0.275364 32,975 99 487 64
2020-07-02 09:55:11 GMT 53.108749 -0.284594 33,000 99 490 0
2020-07-02 09:55:08 GMT 53.109863 -0.295742 33,000 99 489 64
2020-07-02 09:55:05 GMT 53.111122 -0.308344 32,975 99 490 64
2020-07-02 09:55:02 GMT 53.112240 -0.319492 32,975 99 488 64
2020-07-02 09:54:59 GMT 53.113495 -0.332094 32,975 99 488 64
2020-07-02 09:54:56 GMT 53.114777 -0.345049 32,975 99 487 64
2020-07-02 09:54:53 GMT 53.115543 -0.352774 32,975 99 488 0
2020-07-02 09:54:50 GMT 53.116756 -0.364568 32,975 99 488 -64
2020-07-02 09:54:47 GMT 53.117733 -0.374181 32,975 99 487 64
2020-07-02 09:54:44 GMT 53.118801 -0.385249 32,975 99 487 64
2020-07-02 09:54:41 GMT 53.119923 -0.396316 32,975 99 487 64
2020-07-02 09:54:38 GMT 53.121269 -0.409645 32,975 99 487 64
2020-07-02 09:54:35 GMT 53.122421 -0.421012 32,975 98 488 -64
2020-07-02 09:54:32 GMT 53.123180 -0.428790 32,975 99 487 -64
2020-07-02 09:54:29 GMT 53.124664 -0.443926 32,975 99 488 -64
2020-07-02 09:54:26 GMT 53.125740 -0.454640 32,975 99 488 -64
2020-07-02 09:54:23 GMT 53.126762 -0.464980 33,000 99 488 -64
2020-07-02 09:54:20 GMT 53.127594 -0.473511 33,000 99 488 -64
2020-07-02 09:54:17 GMT 53.128998 -0.487922 33,000 99 489 -128
2020-07-02 09:54:14 GMT 53.129929 -0.497535 33,000 98 488 -128
2020-07-02 09:54:11 GMT 53.131233 -0.511672 33,000 98 488 -64
2020-07-02 09:54:08 GMT 53.131897 -0.518712 33,000 98 488 -64
2020-07-02 09:54:05 GMT 53.133224 -0.532758 32,975 98 488 0
2020-07-02 09:54:02 GMT 53.133957 -0.540213 33,000 99 489 -64
2020-07-02 09:53:59 GMT 53.135101 -0.552063 33,000 99 489 0
2020-07-02 09:53:56 GMT 53.136307 -0.564261 32,975 99 489 0
2020-07-02 09:53:53 GMT 53.137253 -0.574271 32,975 99 489 -64
2020-07-02 09:53:50 GMT 53.138542 -0.587284 32,975 98 488 -64
2020-07-02 09:53:47 GMT 53.139565 -0.597624 32,975 99 489 -64
2020-07-02 09:53:44 GMT 53.140682 -0.609499 32,975 98 487 -64
2020-07-02 09:53:41 GMT 53.141418 -0.617275 33,000 98 487 -64
2020-07-02 09:53:38 GMT 53.142639 -0.630179 33,000 98 487 -128
2020-07-02 09:53:35 GMT 53.143570 -0.639792 33,000 98 488 -128
2020-07-02 09:53:32 GMT 53.144806 -0.652823 33,000 98 488 -128
2020-07-02 09:53:29 GMT 53.145756 -0.662815 33,000 98 488 -64
2020-07-02 09:53:26 GMT 53.147015 -0.676144 33,000 98 488 -64
2020-07-02 09:53:23 GMT 53.148285 -0.689863 33,000 98 487 -64
2020-07-02 09:53:20 GMT 53.149200 -0.699437 32,975 98 487 64
2020-07-02 09:53:17 GMT 53.150024 -0.708304 32,975 98 487 0
2020-07-02 09:53:14 GMT 53.151203 -0.721301 33,000 98 487 64
2020-07-02 09:53:11 GMT 53.152088 -0.730914 33,000 98 486 0
2020-07-02 09:53:08 GMT 53.153252 -0.743435 32,975 98 486 0
2020-07-02 09:53:05 GMT 53.154041 -0.752321 32,975 98 486 0
2020-07-02 09:53:02 GMT 53.155209 -0.764842 32,975 98 485 0
2020-07-02 09:52:59 GMT 53.157074 -0.785130 32,975 98 485 -64
2020-07-02 09:52:56 GMT 53.157074 -0.785130 32,975 98 485 64
2020-07-02 09:52:53 GMT 53.158138 -0.796509 32,975 98 485 64
2020-07-02 09:52:50 GMT 53.158932 -0.805395 32,975 98 485 -64
2020-07-02 09:52:47 GMT 53.160282 -0.820097 32,975 98 485 0
2020-07-02 09:52:44 GMT 53.161148 -0.829311 32,975 98 485 -64
2020-07-02 09:52:41 GMT 53.162018 -0.838963 32,975 98 485 -64
2020-07-02 09:52:38 GMT 53.163120 -0.851117 32,975 98 485 -64
2020-07-02 09:52:35 GMT 53.164352 -0.864702 33,000 98 485 -64
2020-07-02 09:52:32 GMT 53.165359 -0.875767 33,000 98 485 -64
2020-07-02 09:52:29 GMT 53.166145 -0.884238 33,000 98 485 -64
2020-07-02 09:52:26 GMT 53.168152 -0.906058 33,000 98 485 -64
2020-07-02 09:52:23 GMT 53.168152 -0.906058 33,000 98 485 0
2020-07-02 09:52:20 GMT 53.169544 -0.921155 33,000 98 485 -64
2020-07-02 09:52:17 GMT 53.170303 -0.928894 33,000 98 485 0
2020-07-02 09:52:14 GMT 53.171314 -0.939573 33,000 99 485 -64
2020-07-02 09:52:11 GMT 53.172523 -0.952095 33,000 99 485 0
2020-07-02 09:52:08 GMT 53.173595 -0.963081 32,975 99 484 0
2020-07-02 09:52:05 GMT 53.174606 -0.972996 33,000 99 485 0
2020-07-02 09:52:02 GMT 53.176025 -0.986258 33,000 100 484 0
2020-07-02 09:51:59 GMT 53.176804 -0.993556 33,000 100 484 -64
2020-07-02 09:51:56 GMT 53.178295 -1.007107 33,000 100 484 0
2020-07-02 09:51:53 GMT 53.179276 -1.016235 33,000 100 484 64
2020-07-02 09:51:50 GMT 53.180878 -1.030910 33,000 100 484 -64
2020-07-02 09:51:47 GMT 53.182068 -1.041520 32,975 100 484 0
2020-07-02 09:51:44 GMT 53.183029 -1.050685 33,000 100 484 -64
2020-07-02 09:51:41 GMT 53.184490 -1.064301 32,975 100 484 0
2020-07-02 09:51:38 GMT 53.185467 -1.073106 32,975 100 484 64
2020-07-02 09:51:35 GMT 53.186630 -1.084092 32,975 100 485 0
2020-07-02 09:51:32 GMT 53.187607 -1.093218 32,975 100 485 0
2020-07-02 09:51:29 GMT 53.189026 -1.106480 32,975 100 485 -64
2020-07-02 09:51:26 GMT 53.190125 -1.116760 32,975 100 485 -64
2020-07-02 09:51:23 GMT 53.191284 -1.127391 32,975 100 485 -64
2020-07-02 09:51:20 GMT 53.192642 -1.140224 32,975 100 485 -64
2020-07-02 09:51:17 GMT 53.194656 -1.158665 32,975 100 486 -64
2020-07-02 09:51:14 GMT 53.194656 -1.158665 32,975 100 486 -64
2020-07-02 09:51:11 GMT 53.196075 -1.171849 32,975 100 486 -64
2020-07-02 09:51:08 GMT 53.197174 -1.182129 32,975 100 486 -64
2020-07-02 09:51:05 GMT 53.199738 -1.206456 32,975 99 486 -64
2020-07-02 09:51:02 GMT 53.199738 -1.206456 32,975 99 486 -128
2020-07-02 09:50:59 GMT 53.200836 -1.216814 32,975 99 486 -64
2020-07-02 09:50:56 GMT 53.201805 -1.226026 32,975 99 486 -64
2020-07-02 09:50:53 GMT 53.203201 -1.239274 32,975 99 486 -128
2020-07-02 09:50:50 GMT 53.204178 -1.248439 33,000 100 486 -128
2020-07-02 09:50:47 GMT 53.205296 -1.259146 33,000 100 486 -64
2020-07-02 09:50:44 GMT 53.206741 -1.272395 33,000 100 486 -64
2020-07-02 09:50:41 GMT 53.208042 -1.284916 33,000 100 486 -64
2020-07-02 09:50:38 GMT 53.208939 -1.293405 33,000 100 486 -64
2020-07-02 09:50:35 GMT 53.210232 -1.305596 33,000 100 486 -64
2020-07-02 09:50:32 GMT 53.211365 -1.316241 33,000 100 486 -64
2020-07-02 09:50:29 GMT 53.212513 -1.326922 33,000 100 486 -64
2020-07-02 09:50:26 GMT 53.213535 -1.336455 33,000 99 485 -64
2020-07-02 09:50:23 GMT 53.214752 -1.347866 33,000 99 485 -64
2020-07-02 09:50:20 GMT 53.215897 -1.358930 33,000 99 485 -64
2020-07-02 09:50:17 GMT 53.216888 -1.368121 33,000 99 484 64
2020-07-02 09:50:14 GMT 53.218277 -1.381688 33,000 99 484 0
2020-07-02 09:50:11 GMT 53.219284 -1.391183 32,975 99 484 64
2020-07-02 09:50:08 GMT 53.220612 -1.403660 32,975 99 484 64
2020-07-02 09:50:05 GMT 53.222893 -1.425234 32,975 99 483 0
2020-07-02 09:50:02 GMT 53.224228 -1.438110 32,975 99 483 64
2020-07-02 09:49:59 GMT 53.224228 -1.438110 32,975 99 483 64
2020-07-02 09:49:56 GMT 53.225407 -1.449468 32,975 99 483 0
2020-07-02 09:49:53 GMT 53.226517 -1.460083 32,975 99 483 0
2020-07-02 09:49:50 GMT 53.227455 -1.469179 32,975 99 483 -64
2020-07-02 09:49:47 GMT 53.228714 -1.481271 32,975 99 483 -64
2020-07-02 09:49:44 GMT 53.229969 -1.493414 32,975 99 483 -64
2020-07-02 09:49:41 GMT 53.232300 -1.515386 32,975 99 484 -64
2020-07-02 09:49:38 GMT 53.232300 -1.515386 32,975 99 484 -64
2020-07-02 09:49:35 GMT 53.233555 -1.527827 32,975 99 484 -64
2020-07-02 09:49:32 GMT 53.234207 -1.533724 32,975 99 483 -64
2020-07-02 09:49:29 GMT 53.235416 -1.545518 33,000 99 484 -64
2020-07-02 09:49:26 GMT 53.236725 -1.558332 32,975 99 484 -64
2020-07-02 09:49:23 GMT 53.237961 -1.570103 33,000 99 484 -64
2020-07-02 09:49:20 GMT 53.239002 -1.580012 33,000 99 486 -64
2020-07-02 09:49:17 GMT 53.239979 -1.589625 33,000 99 486 -64
2020-07-02 09:49:14 GMT 53.241165 -1.601022 33,000 99 485 -64
2020-07-02 09:49:11 GMT 53.242447 -1.613578 33,000 99 485 -64
2020-07-02 09:49:08 GMT 53.243378 -1.622745 32,975 99 485 -64
2020-07-02 09:49:05 GMT 53.244507 -1.633510 32,975 99 485 -64
2020-07-02 09:49:02 GMT 53.245926 -1.647478 33,000 99 486 -64
2020-07-02 09:48:59 GMT 53.246868 -1.656754 33,000 99 486 -64
2020-07-02 09:48:56 GMT 53.249382 -1.681151 33,000 99 486 -64
2020-07-02 09:48:53 GMT 53.249382 -1.681151 33,000 99 487 -64
2020-07-02 09:48:50 GMT 53.250320 -1.690404 33,000 99 487 -64
2020-07-02 09:48:47 GMT 53.251373 -1.700762 33,000 99 487 -64
2020-07-02 09:48:44 GMT 53.252655 -1.713318 33,000 99 487 -64
2020-07-02 09:48:41 GMT 53.253662 -1.722892 33,000 99 487 0
2020-07-02 09:48:38 GMT 53.254829 -1.734386 33,000 99 487 0
2020-07-02 09:48:35 GMT 53.256226 -1.748082 32,975 99 487 0
2020-07-02 09:48:32 GMT 53.257324 -1.759225 32,975 99 487 0
2020-07-02 09:48:29 GMT 53.258274 -1.768476 32,975 99 487 0
2020-07-02 09:48:26 GMT 53.259201 -1.777745 32,975 99 487 -64
2020-07-02 09:48:23 GMT 53.260620 -1.791792 32,975 99 487 -64
2020-07-02 09:48:20 GMT 53.261810 -1.803293 32,975 99 487 -64
2020-07-02 09:48:17 GMT 53.262726 -1.812509 32,975 99 487 -64
2020-07-02 09:48:14 GMT 53.264099 -1.825849 32,975 99 487 -64
2020-07-02 09:48:11 GMT 53.265289 -1.837699 32,975 99 487 -64
2020-07-02 09:48:08 GMT 53.266022 -1.845075 32,975 99 488 -64
2020-07-02 09:48:05 GMT 53.268585 -1.870344 32,975 99 488 -64
2020-07-02 09:48:02 GMT 53.268585 -1.870344 33,000 99 488 -64
2020-07-02 09:47:59 GMT 53.269638 -1.880702 33,000 99 488 -64
2020-07-02 09:47:56 GMT 53.270702 -1.891506 33,000 99 488 -64
2020-07-02 09:47:53 GMT 53.271744 -1.901498 32,975 99 488 -64
2020-07-02 09:47:50 GMT 53.272842 -1.912641 33,000 99 488 -64
2020-07-02 09:47:47 GMT 53.274124 -1.925276 33,000 99 488 -64
2020-07-02 09:47:44 GMT 53.275085 -1.934928 33,000 99 488 -64
2020-07-02 09:47:41 GMT 53.277145 -1.955723 33,000 99 489 -64
2020-07-02 09:47:35 GMT 53.278381 -1.968358 33,000 99 489 -64
2020-07-02 09:47:32 GMT 53.279526 -1.979501 33,000 99 489 -64
2020-07-02 09:47:28 GMT 53.281456 -1.999189 33,000 99 489 -64
2020-07-02 09:47:25 GMT 53.281967 -2.004359 33,000 99 489 -64
2020-07-02 09:47:22 GMT 53.283051 -2.015128 33,000 99 489 -64
2020-07-02 09:47:19 GMT 53.284378 -2.028547 33,000 99 489 -64
2020-07-02 09:47:16 GMT 53.285461 -2.039256 32,975 99 489 0
2020-07-02 09:47:13 GMT 53.286530 -2.050404 32,975 99 489 64
2020-07-02 09:47:10 GMT 53.288811 -2.073508 32,975 99 489 0
2020-07-02 09:47:07 GMT 53.288811 -2.073508 33,000 99 489 -64
2020-07-02 09:47:04 GMT 53.289963 -2.085048 32,975 99 489 -64
2020-07-02 09:47:01 GMT 53.292255 -2.108406 33,000 99 489 -64
2020-07-02 09:46:58 GMT 53.292255 -2.108406 33,000 99 489 -64
2020-07-02 09:46:55 GMT 53.293373 -2.119554 33,000 99 489 -64
2020-07-02 09:46:52 GMT 53.294266 -2.128836 33,000 99 489 -64
2020-07-02 09:46:49 GMT 53.295364 -2.139980 33,000 99 489 0
2020-07-02 09:46:46 GMT 53.296326 -2.149711 33,000 99 489 0
2020-07-02 09:46:43 GMT 53.297562 -2.162345 32,975 99 489 -64
2020-07-02 09:46:40 GMT 53.298634 -2.173112 32,975 99 489 -64
2020-07-02 09:46:37 GMT 53.300720 -2.194284 33,000 99 489 -64
2020-07-02 09:46:34 GMT 53.300720 -2.194284 33,000 99 489 -64
2020-07-02 09:46:31 GMT 53.301682 -2.204014 33,000 99 489 -64
2020-07-02 09:46:28 GMT 53.302872 -2.216249 33,000 99 489 -64
2020-07-02 09:46:25 GMT 53.303970 -2.227792 33,000 99 489 -64
2020-07-02 09:46:22 GMT 53.305069 -2.238935 33,000 99 489 -64
2020-07-02 09:46:19 GMT 53.306175 -2.250501 33,000 99 490 -64
2020-07-02 09:46:16 GMT 53.307312 -2.262085 33,000 99 490 -64
2020-07-02 09:46:13 GMT 53.308224 -2.271423 33,000 99 490 -64
2020-07-02 09:46:10 GMT 53.309464 -2.284450 32,975 99 490 -64
2020-07-02 09:46:07 GMT 53.310738 -2.297435 33,000 99 490 -64
2020-07-02 09:46:04 GMT 53.311714 -2.307937 33,000 99 490 -64
2020-07-02 09:46:01 GMT 53.312740 -2.318358 33,000 99 489 -64
2020-07-02 09:45:58 GMT 53.314087 -2.332084 33,000 99 490 -64
2020-07-02 09:45:55 GMT 53.315067 -2.342188 33,000 99 490 -64
2020-07-02 09:45:52 GMT 53.317154 -2.364179 33,000 99 490 -64
2020-07-02 09:45:49 GMT 53.317154 -2.364179 33,000 99 490 0
2020-07-02 09:45:46 GMT 53.318375 -2.376440 33,000 99 490 0
2020-07-02 09:45:43 GMT 53.319210 -2.385406 33,000 99 490 0
2020-07-02 09:45:40 GMT 53.320267 -2.396197 33,000 99 490 -64
2020-07-02 09:45:37 GMT 53.321182 -2.405927 32,975 99 490 -64
2020-07-02 09:45:34 GMT 53.322372 -2.417855 32,975 99 490 -64
2020-07-02 09:45:31 GMT 53.323399 -2.428625 33,000 99 490 -64
2020-07-02 09:45:28 GMT 53.324471 -2.439853 33,000 99 490 -64
2020-07-02 09:45:25 GMT 53.326675 -2.462585 33,000 99 490 -64
2020-07-02 09:45:22 GMT 53.326675 -2.462585 33,000 101 494 64
2020-07-02 09:45:19 GMT 53.327869 -2.474913 33,000 98 489 -64
2020-07-02 09:45:16 GMT 53.328873 -2.485735 33,000 98 489 -64
2020-07-02 09:45:13 GMT 53.330063 -2.498369 33,000 98 490 -64
2020-07-02 09:45:10 GMT 53.330933 -2.508100 33,000 98 490 -64
2020-07-02 09:45:07 GMT 53.331875 -2.518212 33,000 98 490 -64
2020-07-02 09:45:04 GMT 53.333084 -2.531328 33,000 98 490 0
2020-07-02 09:45:01 GMT 53.333969 -2.540669 32,975 99 491 64
2020-07-02 09:44:58 GMT 53.335236 -2.552987 32,975 99 492 64
2020-07-02 09:44:55 GMT 53.336342 -2.563773 32,975 100 493 64
2020-07-02 09:44:52 GMT 53.337460 -2.574274 32,975 100 493 64
2020-07-02 09:44:49 GMT 53.338852 -2.586574 32,975 100 493 64
2020-07-02 09:44:46 GMT 53.340393 -2.599640 32,975 101 494 64
2020-07-02 09:44:43 GMT 53.341599 -2.609724 32,975 101 495 64
2020-07-02 09:44:40 GMT 53.343094 -2.622097 32,975 102 496 0
2020-07-02 09:44:37 GMT 53.344440 -2.632518 32,975 102 496 0
2020-07-02 09:44:34 GMT 53.345673 -2.641898 32,975 102 496 0
2020-07-02 09:44:31 GMT 53.347687 -2.656887 32,975 103 497 -64
2020-07-02 09:44:28 GMT 53.349564 -2.670306 32,975 103 498 -128
2020-07-02 09:44:25 GMT 53.350662 -2.677761 32,975 103 499 -128
2020-07-02 09:44:22 GMT 53.351944 -2.686785 33,000 103 499 -128
2020-07-02 09:44:19 GMT 53.353409 -2.696516 33,000 104 500 -128
2020-07-02 09:44:16 GMT 53.355892 -2.712573 33,000 104 501 -64
2020-07-02 09:44:13 GMT 53.357483 -2.722648 33,000 104 501 -64
2020-07-02 09:44:10 GMT 53.359039 -2.732378 33,000 105 502 -64
2020-07-02 09:44:07 GMT 53.360924 -2.743997 33,000 105 502 -64
2020-07-02 09:44:04 GMT 53.362831 -2.755145 32,975 106 502 0
2020-07-02 09:44:00 GMT 53.365528 -2.770009 32,975 108 503 -64
2020-07-02 09:43:57 GMT 53.367325 -2.779227 32,975 108 504 0
2020-07-02 09:43:54 GMT 53.370140 -2.792870 33,000 110 504 -64
2020-07-02 09:43:51 GMT 53.375027 -2.813065 33,000 113 505 -64
2020-07-02 09:43:48 GMT 53.375027 -2.813065 33,000 114 506 -64
2020-07-02 09:43:45 GMT 53.378586 -2.826233 33,000 126 510 0
2020-07-02 09:43:42 GMT 53.381058 -2.834708 33,000 116 507 -64
2020-07-02 09:43:39 GMT 53.383965 -2.844086 33,000 117 507 -64
2020-07-02 09:43:36 GMT 53.387409 -2.854345 33,000 121 509 -64
2020-07-02 09:43:33 GMT 53.391129 -2.864842 33,000 122 509 -64
2020-07-02 09:43:30 GMT 53.395203 -2.875436 33,000 123 509 0
2020-07-02 09:43:27 GMT 53.398911 -2.884539 33,000 125 510 0
2020-07-02 09:43:24 GMT 53.403145 -2.894413 32,975 127 511 0
2020-07-02 09:43:21 GMT 53.407928 -2.904707 32,975 128 511 0
2020-07-02 09:43:18 GMT 53.411339 -2.911781 32,975 130 511 0
2020-07-02 09:43:15 GMT 53.416878 -2.922525 32,975 131 511 -64
2020-07-02 09:43:12 GMT 53.421021 -2.930118 33,000 133 512 -64
2020-07-02 09:43:09 GMT 53.426979 -2.940297 32,975 135 511 -64
2020-07-02 09:43:06 GMT 53.431400 -2.947486 33,000 137 511 -64
2020-07-02 09:43:03 GMT 53.437134 -2.956342 33,000 138 512 -64
2020-07-02 09:43:00 GMT 53.441597 -2.962835 32,975 144 512 0
2020-07-02 09:42:57 GMT 53.446716 -2.969863 33,000 142 512 0
2020-07-02 09:42:54 GMT 53.460205 -2.986633 33,000 144 512 0
2020-07-02 09:42:51 GMT 53.460205 -2.986633 33,000 145 512 0
2020-07-02 09:42:48 GMT 53.464314 -2.991351 32,975 147 512 0
2020-07-02 09:42:45 GMT 53.470093 -2.997541 32,975 148 512 -64
2020-07-02 09:42:42 GMT 53.476326 -3.003872 33,000 149 512 -64
2020-07-02 09:42:39 GMT 53.484192 -3.011223 33,000 152 511 -64
2020-07-02 09:42:36 GMT 53.490475 -3.016716 33,000 153 512 -64
2020-07-02 09:42:33 GMT 53.494537 -3.019985 32,975 155 511 -64
2020-07-02 09:42:30 GMT 53.502907 -3.026329 33,000 157 511 -64
2020-07-02 09:42:27 GMT 53.507904 -3.029872 33,000 164 509 0
2020-07-02 09:42:24 GMT 53.514954 -3.034424 33,000 160 510 0
2020-07-02 09:42:21 GMT 53.520969 -3.038043 33,000 161 510 0
2020-07-02 09:42:18 GMT 53.529488 -3.042567 33,000 164 510 -64
2020-07-02 09:42:15 GMT 53.536057 -3.045724 32,975 165 509 0
2020-07-02 09:42:11 GMT 53.547455 -3.050354 32,975 168 508 0
2020-07-02 09:42:08 GMT 53.558533 -3.053964 32,975 169 508 0
2020-07-02 09:42:05 GMT 53.558533 -3.053964 32,975 170 507 0
2020-07-02 09:42:02 GMT 53.565948 -3.055926 32,975 171 507 0
2020-07-02 09:41:59 GMT 53.573154 -3.057350 32,975 174 506 0
2020-07-02 09:41:56 GMT 53.580135 -3.058481 32,975 176 505 0
2020-07-02 09:41:53 GMT 53.587120 -3.059208 32,975 177 505 -64
2020-07-02 09:41:49 GMT 53.595497 -3.059612 33,000 181 505 -64
2020-07-02 09:41:46 GMT 53.601791 -3.059535 33,000 183 503 0
2020-07-02 09:41:43 GMT 53.608997 -3.059208 33,000 184 503 -64
2020-07-02 09:41:40 GMT 53.616669 -3.058437 33,000 185 502 0
2020-07-02 09:41:37 GMT 53.624496 -3.057181 33,000 187 501 0
2020-07-02 09:41:34 GMT 53.630951 -3.055847 33,000 189 500 0
2020-07-02 09:41:31 GMT 53.637817 -3.054042 32,975 191 500 0
2020-07-02 09:41:28 GMT 53.644844 -3.051857 32,975 192 499 0
2020-07-02 09:41:25 GMT 53.651127 -3.049595 32,975 194 498 0
2020-07-02 09:41:22 GMT 53.655807 -3.047686 32,975 195 497 0
2020-07-02 09:41:19 GMT 53.665100 -3.043370 32,975 197 496 0
2020-07-02 09:41:16 GMT 53.671471 -3.039982 33,000 200 495 0
2020-07-02 09:41:13 GMT 53.676640 -3.036993 33,000 202 493 -64
2020-07-02 09:41:10 GMT 53.683483 -3.032711 33,000 205 491 0
2020-07-02 09:41:07 GMT 53.691025 -3.027380 33,000 205 491 0
2020-07-02 09:41:04 GMT 53.696842 -3.023017 33,000 205 491 0
2020-07-02 09:41:01 GMT 53.703552 -3.017473 32,975 208 490 0
2020-07-02 09:40:58 GMT 53.708157 -3.013404 33,000 210 488 0
2020-07-02 09:40:55 GMT 53.714066 -3.007750 32,975 212 487 0
2020-07-02 09:40:52 GMT 53.719093 -3.002660 33,000 213 487 0
2020-07-02 09:40:49 GMT 53.727009 -2.994098 33,000 215 485 0
2020-07-02 09:40:46 GMT 53.730469 -2.989929 33,000 216 484 0
2020-07-02 09:40:43 GMT 53.736603 -2.982396 33,000 218 483 0
2020-07-02 09:40:40 GMT 53.742744 -2.974225 33,000 221 482 0
2020-07-02 09:40:37 GMT 53.746513 -2.968894 33,000 222 481 0
2020-07-02 09:40:34 GMT 53.752796 -2.959442 33,000 223 480 0
2020-07-02 09:40:31 GMT 53.756149 -2.953988 33,000 225 478 0
2020-07-02 09:40:28 GMT 53.761925 -2.944255 33,000 231 475 0
2020-07-02 09:40:25 GMT 53.765507 -2.937712 33,000 230 476 0
2020-07-02 09:40:22 GMT 53.770443 -2.928180 33,000 231 474 0
2020-07-02 09:40:18 GMT 53.775558 -2.917576 33,000 234 473 0
2020-07-02 09:40:15 GMT 53.780170 -2.907257 33,000 236 471 0
2020-07-02 09:40:12 GMT 53.784531 -2.896702 33,000 236 472 64
2020-07-02 09:40:09 GMT 53.787479 -2.888920 33,000 237 471 0
2020-07-02 09:40:06 GMT 53.791397 -2.878026 32,975 241 468 0
2020-07-02 09:40:03 GMT 53.793549 -2.871591 33,000 242 468 0
2020-07-02 09:40:00 GMT 53.797348 -2.859349 32,975 244 467 0
2020-07-02 09:39:57 GMT 53.799591 -2.851501 33,000 246 466 0
2020-07-02 09:39:54 GMT 53.802517 -2.840531 32,975 248 465 0
2020-07-02 09:39:48 GMT 53.806847 -2.821628 33,000 251 463 0
2020-07-02 09:39:45 GMT 53.808380 -2.814116 32,975 255 461 64
2020-07-02 09:39:42 GMT 53.810989 -2.799656 33,000 256 460 0
2020-07-02 09:39:39 GMT 53.812866 -2.787545 33,000 258 459 0
2020-07-02 09:39:36 GMT 53.813736 -2.781189 33,000 258 459 0
2020-07-02 09:39:33 GMT 53.815887 -2.761492 32,975 262 458 0
2020-07-02 09:39:27 GMT 53.816986 -2.748073 32,975 265 456 64
2020-07-02 09:39:24 GMT 53.817646 -2.736404 32,975 266 455 0
2020-07-02 09:39:21 GMT 53.818020 -2.725740 32,975 268 455 64
2020-07-02 09:39:18 GMT 53.818222 -2.713388 32,975 274 452 0
2020-07-02 09:39:15 GMT 53.818176 -2.703421 32,975 272 453 64
2020-07-02 09:39:12 GMT 53.818066 -2.696013 32,975 273 453 0
2020-07-02 09:39:09 GMT 53.817490 -2.682234 32,975 276 452 0
2020-07-02 09:39:06 GMT 53.816986 -2.673837 32,975 278 451 -64
2020-07-02 09:39:03 GMT 53.816345 -2.664734 32,975 279 451 -64
2020-07-02 09:39:00 GMT 53.815411 -2.654652 33,000 283 450 -64
2020-07-02 09:38:57 GMT 53.813965 -2.641192 33,000 282 450 -64
2020-07-02 09:38:54 GMT 53.812958 -2.632952 33,000 283 451 -64
2020-07-02 09:38:51 GMT 53.811493 -2.621181 33,000 283 451 -64
2020-07-02 09:38:48 GMT 53.810104 -2.610545 33,000 283 451 -64
2020-07-02 09:38:45 GMT 53.809078 -2.602306 33,000 283 451 -64
2020-07-02 09:38:42 GMT 53.807823 -2.592693 33,000 283 451 -64
2020-07-02 09:38:39 GMT 53.806286 -2.580979 33,000 283 451 -64
2020-07-02 09:38:36 GMT 53.804611 -2.567973 33,000 283 451 -64
2020-07-02 09:38:33 GMT 53.803665 -2.560678 33,000 283 451 64
2020-07-02 09:38:30 GMT 53.801880 -2.546945 33,000 283 451 0
2020-07-02 09:38:27 GMT 53.800735 -2.537999 33,000 283 451 0
2020-07-02 09:38:24 GMT 53.799774 -2.530465 33,000 283 451 0
2020-07-02 09:38:21 GMT 53.798374 -2.519827 33,000 283 451 64
2020-07-02 09:38:18 GMT 53.797024 -2.509487 33,000 283 451 64
2020-07-02 09:38:15 GMT 53.795746 -2.499547 33,000 283 451 64
2020-07-02 09:38:12 GMT 53.794182 -2.487515 32,975 283 451 64
2020-07-02 09:38:09 GMT 53.792953 -2.478202 33,000 283 451 64
2020-07-02 09:38:06 GMT 53.791668 -2.468289 33,000 283 451 64
2020-07-02 09:38:03 GMT 53.790344 -2.458269 32,975 283 451 64
2020-07-02 09:38:00 GMT 53.789249 -2.449709 32,975 283 451 64
2020-07-02 09:37:57 GMT 53.787460 -2.436297 32,975 283 451 64
2020-07-02 09:37:54 GMT 53.786133 -2.426017 32,975 283 451 64
2020-07-02 09:37:51 GMT 53.783615 -2.406712 32,975 283 452 0
2020-07-02 09:37:48 GMT 53.783615 -2.406712 32,975 283 452 -64
2020-07-02 09:37:45 GMT 53.782127 -2.395423 32,975 283 452 -64
2020-07-02 09:37:42 GMT 53.780869 -2.385730 32,975 283 452 -64
2020-07-02 09:37:39 GMT 53.778961 -2.371270 33,000 283 453 -64
2020-07-02 09:37:36 GMT 53.778168 -2.365356 32,975 283 453 -64
2020-07-02 09:37:33 GMT 53.776337 -2.351624 33,000 283 453 -64
2020-07-02 09:37:30 GMT 53.775009 -2.341187 33,000 283 454 -64
2020-07-02 09:37:27 GMT 53.773842 -2.332575 33,000 283 454 -64
2020-07-02 09:37:24 GMT 53.772446 -2.321882 33,000 283 454 -64
2020-07-02 09:37:21 GMT 53.771072 -2.311445 33,000 283 455 -64
2020-07-02 09:37:18 GMT 53.769650 -2.300747 33,000 283 455 -64
2020-07-02 09:37:15 GMT 53.768600 -2.292768 33,000 283 455 -64
2020-07-02 09:37:12 GMT 53.766998 -2.280632 33,000 283 455 -64
2020-07-02 09:37:09 GMT 53.765854 -2.271973 33,000 283 456 -64
2020-07-02 09:37:06 GMT 53.764297 -2.260202 33,000 283 456 -64
2020-07-02 09:37:03 GMT 53.762741 -2.248352 33,000 283 457 -64
2020-07-02 09:37:00 GMT 53.761410 -2.238303 33,000 283 457 -64
2020-07-02 09:36:57 GMT 53.760406 -2.231009 33,000 283 457 0
2020-07-02 09:36:54 GMT 53.758392 -2.215785 33,000 283 457 0
2020-07-02 09:36:51 GMT 53.757660 -2.210214 33,000 283 457 64
2020-07-02 09:36:48 GMT 53.756287 -2.199777 33,000 283 457 64
2020-07-02 09:36:45 GMT 53.754593 -2.187221 33,000 283 458 128
2020-07-02 09:36:42 GMT 53.753078 -2.175778 32,975 283 460 64
2020-07-02 09:36:39 GMT 53.751961 -2.167457 32,975 283 458 128
2020-07-02 09:36:36 GMT 53.750793 -2.158735 32,975 283 459 128
2020-07-02 09:36:33 GMT 53.749306 -2.147181 32,975 283 459 64
2020-07-02 09:36:30 GMT 53.747910 -2.136760 32,975 283 460 64
2020-07-02 09:36:27 GMT 53.746536 -2.126639 32,975 283 460 0
2020-07-02 09:36:24 GMT 53.744934 -2.114711 32,975 283 461 -64
2020-07-02 09:36:21 GMT 53.743057 -2.100743 32,975 283 462 -64
2020-07-02 09:36:18 GMT 53.742092 -2.093380 32,975 283 463 -128
2020-07-02 09:36:15 GMT 53.740509 -2.081344 33,000 283 464 -128
2020-07-02 09:36:12 GMT 53.739346 -2.072942 33,000 283 464 -128
2020-07-02 09:36:09 GMT 53.737701 -2.060564 33,000 283 465 -128
2020-07-02 09:36:06 GMT 53.736038 -2.048223 33,000 283 466 -64
2020-07-02 09:36:03 GMT 53.734829 -2.038933 33,000 283 467 -64
2020-07-02 09:36:00 GMT 53.733719 -2.030823 33,000 283 467 -64
2020-07-02 09:35:57 GMT 53.731979 -2.018032 33,000 283 468 0
2020-07-02 09:35:54 GMT 53.729057 -1.996280 33,000 283 468 0
2020-07-02 09:35:51 GMT 53.729057 -1.996280 32,975 283 469 0
2020-07-02 09:35:48 GMT 53.727707 -1.986344 33,000 283 469 0
2020-07-02 09:35:45 GMT 53.726303 -1.975970 32,975 283 469 0
2020-07-02 09:35:42 GMT 53.724773 -1.964937 32,975 283 470 0
2020-07-02 09:35:39 GMT 53.723423 -1.954920 33,000 283 470 0
2020-07-02 09:35:36 GMT 53.721981 -1.944257 32,975 283 470 0
2020-07-02 09:35:33 GMT 53.720722 -1.934886 32,975 283 470 0
2020-07-02 09:35:30 GMT 53.719002 -1.922042 32,975 283 471 0
2020-07-02 09:35:27 GMT 53.717560 -1.911298 32,975 283 471 -64
2020-07-02 09:35:24 GMT 53.716141 -1.900949 33,000 283 471 -64
2020-07-02 09:35:21 GMT 53.714531 -1.889083 33,000 283 472 -64
2020-07-02 09:35:18 GMT 53.713440 -1.880859 32,975 283 472 0
2020-07-02 09:35:15 GMT 53.711552 -1.866868 32,975 283 473 0
2020-07-02 09:35:12 GMT 53.710064 -1.856124 32,975 283 473 0
2020-07-02 09:35:09 GMT 53.707642 -1.838190 33,000 283 473 -64
2020-07-02 09:35:06 GMT 53.705704 -1.824201 33,000 283 473 -64
2020-07-02 09:35:03 GMT 53.705704 -1.824201 33,000 283 473 -64
2020-07-02 09:35:00 GMT 53.704803 -1.817429 33,000 283 473 -64
2020-07-02 09:34:57 GMT 53.703033 -1.804504 33,000 283 473 -64
2020-07-02 09:34:54 GMT 53.700287 -1.784390 33,000 283 473 -64
2020-07-02 09:34:51 GMT 53.700287 -1.784390 33,000 283 473 0
2020-07-02 09:34:48 GMT 53.698334 -1.770368 33,000 283 473 0
2020-07-02 09:34:45 GMT 53.695633 -1.750623 33,000 284 474 64
2020-07-02 09:34:42 GMT 53.695633 -1.750623 33,000 284 474 64
2020-07-02 09:34:39 GMT 53.694122 -1.739528 32,975 284 474 64
2020-07-02 09:34:36 GMT 53.692608 -1.728408 32,975 284 474 64
2020-07-02 09:34:33 GMT 53.690929 -1.716210 32,975 284 474 64
2020-07-02 09:34:30 GMT 53.689590 -1.706491 32,975 284 474 0
2020-07-02 09:34:27 GMT 53.688229 -1.696822 32,975 284 474 0
2020-07-02 09:34:24 GMT 53.685390 -1.675981 32,975 284 474 0
2020-07-02 09:34:21 GMT 53.685390 -1.675981 33,000 284 475 -64
2020-07-02 09:34:18 GMT 53.683640 -1.663409 32,975 284 475 0
2020-07-02 09:34:15 GMT 53.682449 -1.654776 32,975 284 475 0
2020-07-02 09:34:12 GMT 53.680756 -1.642535 33,000 284 476 -64
2020-07-02 09:34:09 GMT 53.678879 -1.628880 33,000 284 477 0
2020-07-02 09:34:06 GMT 53.677525 -1.619110 33,000 284 476 -64
2020-07-02 09:34:03 GMT 53.674728 -1.598915 33,000 284 476 -64
2020-07-02 09:34:00 GMT 53.674728 -1.598915 33,000 284 476 -64
2020-07-02 09:33:57 GMT 53.673431 -1.589172 33,000 284 476 -64
2020-07-02 09:33:54 GMT 53.671658 -1.576538 33,000 284 477 0
2020-07-02 09:33:51 GMT 53.670170 -1.565713 33,000 284 477 0
2020-07-02 09:33:48 GMT 53.668774 -1.555616 33,000 284 477 0
2020-07-02 09:33:45 GMT 53.667389 -1.545855 32,975 284 477 0
2020-07-02 09:33:42 GMT 53.664322 -1.523411 33,000 284 477 64
2020-07-02 09:33:39 GMT 53.664322 -1.523411 32,975 284 477 64
2020-07-02 09:33:36 GMT 53.662811 -1.512582 32,975 284 477 64
2020-07-02 09:33:33 GMT 53.661228 -1.501411 32,975 284 477 64
2020-07-02 09:33:30 GMT 53.659470 -1.488726 32,975 284 477 64
2020-07-02 09:33:27 GMT 53.658279 -1.480094 32,975 284 478 -64
2020-07-02 09:33:24 GMT 53.656860 -1.469892 32,975 284 478 -64
2020-07-02 09:33:21 GMT 53.655441 -1.459769 33,000 284 478 -64
2020-07-02 09:33:18 GMT 53.653873 -1.448580 33,000 284 478 -64
2020-07-02 09:33:15 GMT 53.652386 -1.437674 33,000 284 478 -64
2020-07-02 09:33:12 GMT 53.650570 -1.424668 32,975 284 479 -64
2020-07-02 09:33:09 GMT 53.649361 -1.415944 33,000 284 479 -64
2020-07-02 09:33:06 GMT 53.647476 -1.402562 33,000 284 479 0
2020-07-02 09:33:03 GMT 53.645683 -1.389851 33,000 284 479 0
2020-07-02 09:33:00 GMT 53.644283 -1.379673 32,975 284 479 0
2020-07-02 09:32:57 GMT 53.643028 -1.370948 33,000 284 479 0
2020-07-02 09:32:54 GMT 53.641068 -1.356812 33,000 284 480 0
2020-07-02 09:32:51 GMT 53.640015 -1.349513 33,000 284 480 0
2020-07-02 09:32:48 GMT 53.638596 -1.339390 33,000 284 480 0
2020-07-02 09:32:45 GMT 53.637115 -1.328780 33,000 284 480 0
2020-07-02 09:32:42 GMT 53.635300 -1.316084 32,975 284 481 0
2020-07-02 09:32:39 GMT 53.633717 -1.304788 32,975 284 481 0
2020-07-02 09:32:36 GMT 53.632370 -1.294974 32,975 284 481 0
2020-07-02 09:32:33 GMT 53.630630 -1.282575 32,975 284 481 0
2020-07-02 09:32:30 GMT 53.629017 -1.271344 32,975 284 481 64
2020-07-02 09:32:27 GMT 53.627712 -1.261812 33,000 284 481 0
2020-07-02 09:32:24 GMT 53.625942 -1.249452 32,975 284 482 0
2020-07-02 09:32:21 GMT 53.624920 -1.242182 32,975 284 482 0
2020-07-02 09:32:18 GMT 53.623215 -1.230155 33,000 284 482 0
2020-07-02 09:32:15 GMT 53.621429 -1.217756 33,000 284 482 0
2020-07-02 09:32:12 GMT 53.620331 -1.209752 33,000 284 482 0
2020-07-02 09:32:09 GMT 53.618729 -1.198479 33,000 284 483 0
2020-07-02 09:32:06 GMT 53.616806 -1.184954 33,000 284 482 -64
2020-07-02 09:32:03 GMT 53.615471 -1.175860 33,000 284 483 0
2020-07-02 09:32:00 GMT 53.613838 -1.164228 32,975 284 483 0
2020-07-02 09:31:57 GMT 53.612320 -1.153643 33,000 284 483 0
2020-07-02 09:31:54 GMT 53.610909 -1.143790 33,000 284 483 0
2020-07-02 09:31:51 GMT 53.608952 -1.129976 33,000 284 483 0
2020-07-02 09:31:48 GMT 53.605957 -1.109148 32,975 284 483 64
2020-07-02 09:31:45 GMT 53.605957 -1.109148 32,975 284 483 64
2020-07-02 09:31:42 GMT 53.603989 -1.095258 32,975 284 483 64
2020-07-02 09:31:39 GMT 53.602753 -1.086548 32,975 284 483 64
2020-07-02 09:31:36 GMT 53.601456 -1.077387 32,975 284 483 0
2020-07-02 09:31:33 GMT 53.599457 -1.063493 32,975 284 483 0
2020-07-02 09:31:30 GMT 53.598106 -1.054041 32,975 284 483 0
2020-07-02 09:31:27 GMT 53.596985 -1.046369 33,000 284 483 0
2020-07-02 09:31:24 GMT 53.595173 -1.033603 33,000 284 483 0
2020-07-02 09:31:21 GMT 53.593323 -1.020787 32,975 284 484 0
2020-07-02 09:31:18 GMT 53.592041 -1.012076 33,000 284 484 0
2020-07-02 09:31:15 GMT 53.588699 -0.988691 32,975 284 484 64
2020-07-02 09:31:12 GMT 53.588699 -0.988691 32,975 284 484 64
2020-07-02 09:31:08 GMT 53.586777 -0.975507 32,975 284 483 0
2020-07-02 09:31:05 GMT 53.585026 -0.963485 32,975 284 483 0
2020-07-02 09:31:02 GMT 53.583302 -0.951852 33,000 284 484 -64
2020-07-02 09:30:59 GMT 53.582047 -0.943047 33,000 284 484 -64
2020-07-02 09:30:56 GMT 53.580505 -0.932504 33,000 284 484 -64
2020-07-02 09:30:53 GMT 53.578648 -0.919701 33,000 284 484 -64
2020-07-02 09:30:50 GMT 53.576736 -0.906534 33,000 284 484 -64
2020-07-02 09:30:47 GMT 53.575249 -0.896355 33,000 284 484 -64
2020-07-02 09:30:44 GMT 53.573914 -0.887224 33,000 284 484 -64
2020-07-02 09:30:41 GMT 53.572540 -0.877729 33,000 284 484 -64
2020-07-02 09:30:38 GMT 53.570847 -0.866037 33,000 284 483 -64
2020-07-02 09:30:35 GMT 53.569290 -0.855050 33,000 284 484 -64
2020-07-02 09:30:32 GMT 53.567505 -0.842730 33,000 284 483 64
2020-07-02 09:30:29 GMT 53.565750 -0.830680 33,000 284 483 128
2020-07-02 09:30:26 GMT 53.564209 -0.820129 33,000 284 483 64
2020-07-02 09:30:23 GMT 53.562634 -0.809595 33,000 284 483 128
2020-07-02 09:30:20 GMT 53.561050 -0.798690 32,975 284 482 128
2020-07-02 09:30:17 GMT 53.559402 -0.787406 33,000 284 482 128
2020-07-02 09:30:14 GMT 53.557892 -0.777283 32,975 284 482 128
2020-07-02 09:30:11 GMT 53.554951 -0.757330 32,975 284 482 64
2020-07-02 09:30:08 GMT 53.554951 -0.757330 32,975 284 481 64
2020-07-02 09:30:05 GMT 53.552624 -0.741335 32,975 284 481 64
2020-07-02 09:30:02 GMT 53.551804 -0.735927 32,975 284 481 0
2020-07-02 09:29:59 GMT 53.549831 -0.722432 32,975 284 482 -64
2020-07-02 09:29:56 GMT 53.548573 -0.713788 33,000 285 484 0
2020-07-02 09:29:53 GMT 53.546494 -0.699594 32,975 284 482 0
2020-07-02 09:29:50 GMT 53.545258 -0.690883 33,000 284 483 -64
2020-07-02 09:29:47 GMT 53.543823 -0.680991 33,000 284 484 -64
2020-07-02 09:29:44 GMT 53.542145 -0.669695 32,975 285 486 64
2020-07-02 09:29:41 GMT 53.540497 -0.658787 32,975 285 484 0
2020-07-02 09:29:38 GMT 53.538986 -0.648586 32,975 285 484 -64
2020-07-02 09:29:35 GMT 53.537308 -0.637369 33,000 285 484 -64
2020-07-02 09:29:32 GMT 53.535049 -0.622375 33,000 285 484 -64
2020-07-02 09:29:29 GMT 53.534088 -0.615862 33,000 284 485 -64
2020-07-02 09:29:26 GMT 53.532421 -0.604490 33,000 284 485 -64
2020-07-02 09:29:23 GMT 53.530563 -0.591771 32,975 284 489 -64
2020-07-02 09:29:20 GMT 53.528641 -0.578587 33,000 284 486 64
2020-07-02 09:29:17 GMT 53.527393 -0.570158 32,975 285 486 64
2020-07-02 09:29:14 GMT 53.525669 -0.558445 32,975 285 486 64
2020-07-02 09:29:11 GMT 53.524109 -0.547904 32,975 285 486 64
2020-07-02 09:29:08 GMT 53.522369 -0.536211 32,975 285 486 64
2020-07-02 09:29:05 GMT 53.520493 -0.523734 32,975 285 486 0
2020-07-02 09:29:02 GMT 53.519245 -0.515307 32,975 285 487 -64
2020-07-02 09:28:59 GMT 53.517471 -0.503252 32,975 284 487 0
2020-07-02 09:28:56 GMT 53.515896 -0.492608 32,975 284 488 -64
2020-07-02 09:28:53 GMT 53.514263 -0.481621 33,000 284 488 -64
2020-07-02 09:28:50 GMT 53.512402 -0.469100 33,000 284 488 -64
2020-07-02 09:28:47 GMT 53.510773 -0.458114 33,000 284 488 -64
2020-07-02 09:28:44 GMT 53.509735 -0.451146 33,000 285 489 -64
2020-07-02 09:28:41 GMT 53.507702 -0.437514 33,000 284 489 -64
2020-07-02 09:28:38 GMT 53.505936 -0.425406 32,975 285 489 0
2020-07-02 09:28:35 GMT 53.504677 -0.416915 32,975 285 489 0
2020-07-02 09:28:32 GMT 53.502998 -0.405929 33,000 285 489 -64
2020-07-02 09:28:29 GMT 53.501137 -0.393407 32,975 285 490 -64
2020-07-02 09:28:26 GMT 53.499741 -0.383794 33,000 285 490 0
2020-07-02 09:28:23 GMT 53.497833 -0.371273 33,000 285 490 -64
2020-07-02 09:28:20 GMT 53.496433 -0.361741 33,000 285 490 -64
2020-07-02 09:28:17 GMT 53.494812 -0.351013 33,000 285 490 0
2020-07-02 09:28:14 GMT 53.491287 -0.327471 33,000 285 490 0
2020-07-02 09:28:11 GMT 53.491287 -0.327471 33,000 285 490 0
2020-07-02 09:28:08 GMT 53.489452 -0.315291 32,975 285 490 64
2020-07-02 09:28:05 GMT 53.486160 -0.293570 33,000 285 491 0
2020-07-02 09:28:02 GMT 53.486160 -0.293570 33,000 285 490 0
2020-07-02 09:27:59 GMT 53.484566 -0.282898 32,975 285 489 0
2020-07-02 09:27:55 GMT 53.482407 -0.268616 32,975 285 490 0
2020-07-02 09:27:52 GMT 53.480419 -0.255674 32,975 285 490 0
2020-07-02 09:27:49 GMT 53.479065 -0.246486 32,975 285 490 -64
2020-07-02 09:27:46 GMT 53.477600 -0.236912 33,000 285 490 -64
2020-07-02 09:27:43 GMT 53.475254 -0.221100 32,975 285 491 -64
2020-07-02 09:27:40 GMT 53.473995 -0.213022 33,000 285 490 -64
2020-07-02 09:27:37 GMT 53.472610 -0.203796 32,975 285 490 -64
2020-07-02 09:27:34 GMT 53.470879 -0.192422 33,000 285 490 -64
2020-07-02 09:27:31 GMT 53.469177 -0.181039 33,000 285 490 -64
2020-07-02 09:27:28 GMT 53.466934 -0.166364 33,000 285 490 -64
2020-07-02 09:27:25 GMT 53.465618 -0.157848 33,000 285 490 -64
2020-07-02 09:27:22 GMT 53.464005 -0.147217 33,000 285 490 0
2020-07-02 09:27:19 GMT 53.462173 -0.135067 33,000 285 490 0
2020-07-02 09:27:16 GMT 53.460892 -0.126657 33,000 285 487 0
2020-07-02 09:27:13 GMT 53.458679 -0.112368 33,000 285 490 0
2020-07-02 09:27:10 GMT 53.457005 -0.101300 33,000 285 489 0
2020-07-02 09:27:07 GMT 53.455627 -0.092207 33,000 285 489 0
2020-07-02 09:27:03 GMT 53.453751 -0.079729 33,000 285 489 64
2020-07-02 09:27:00 GMT 53.451794 -0.066887 32,975 285 488 0
2020-07-02 09:26:57 GMT 53.450115 -0.055901 32,975 285 488 0
2020-07-02 09:26:54 GMT 53.448120 -0.043082 32,975 285 488 64
2020-07-02 09:26:51 GMT 53.446716 -0.034009 32,975 285 487 0
2020-07-02 09:26:48 GMT 53.444641 -0.020482 33,000 285 487 -64
2020-07-02 09:26:45 GMT 53.443600 -0.013491 33,000 285 487 -64
2020-07-02 09:26:42 GMT 53.441620 -0.000785 32,975 285 487 -64
2020-07-02 09:26:39 GMT 53.440201 0.008401 33,000 285 487 -64
2020-07-02 09:26:36 GMT 53.438431 0.020034 33,000 285 487 0
2020-07-02 09:26:33 GMT 53.436756 0.031020 33,000 285 487 -64
2020-07-02 09:26:30 GMT 53.434433 0.045907 33,000 285 487 0
2020-07-02 09:26:27 GMT 53.433655 0.051086 33,000 285 487 0
2020-07-02 09:26:24 GMT 53.431503 0.064898 32,975 285 486 0
2020-07-02 09:26:21 GMT 53.429626 0.077297 32,975 285 486 0
2020-07-02 09:26:18 GMT 53.428253 0.086007 32,975 285 485 0
2020-07-02 09:26:15 GMT 53.426331 0.098406 33,000 285 486 0
2020-07-02 09:26:12 GMT 53.424744 0.108975 33,000 285 486 0
2020-07-02 09:26:09 GMT 53.423161 0.119153 32,975 285 485 0
2020-07-02 09:26:06 GMT 53.421753 0.128226 32,975 285 485 0
2020-07-02 09:26:03 GMT 53.417763 0.153970 33,000 285 483 0
2020-07-02 09:26:00 GMT 53.417763 0.153970 33,000 285 485 -64
2020-07-02 09:25:57 GMT 53.416489 0.162362 33,000 285 484 0
2020-07-02 09:25:54 GMT 53.414551 0.175054 33,000 285 484 -64
2020-07-02 09:25:51 GMT 53.413200 0.183698 33,000 285 484 -64
2020-07-02 09:25:48 GMT 53.411133 0.197126 33,000 285 484 -64
2020-07-02 09:25:45 GMT 53.409988 0.204346 33,000 285 483 64
2020-07-02 09:25:42 GMT 53.408031 0.217061 32,975 285 483 0
2020-07-02 09:25:39 GMT 53.406189 0.228986 33,000 285 483 0
2020-07-02 09:25:36 GMT 53.404774 0.238064 32,975 285 483 64
2020-07-02 09:25:33 GMT 53.403099 0.248889 33,000 285 483 64
2020-07-02 09:25:30 GMT 53.401245 0.260768 32,975 285 483 64
2020-07-02 09:25:27 GMT 53.399780 0.270185 32,975 285 483 0
2020-07-02 09:25:24 GMT 53.398087 0.281015 32,975 285 482 0
2020-07-02 09:25:21 GMT 53.396255 0.292550 32,975 285 482 0
2020-07-02 09:25:18 GMT 53.393005 0.313503 33,000 285 482 -64
2020-07-02 09:25:15 GMT 53.393005 0.313503 32,975 285 482 0
2020-07-02 09:25:12 GMT 53.390854 0.327236 33,000 285 483 0
2020-07-02 09:25:09 GMT 53.389618 0.335161 32,975 285 483 -64
2020-07-02 09:25:06 GMT 53.387177 0.350674 32,975 285 483 -64
2020-07-02 09:25:03 GMT 53.386059 0.357944 32,975 285 483 -64
2020-07-02 09:25:00 GMT 53.383942 0.371259 33,000 285 483 -64
2020-07-02 09:24:57 GMT 53.382706 0.379185 33,000 285 483 -64
2020-07-02 09:24:54 GMT 53.381012 0.390015 33,000 285 483 -64
2020-07-02 09:24:51 GMT 53.379124 0.401970 33,000 285 482 -64
2020-07-02 09:24:48 GMT 53.377716 0.410967 33,000 285 483 -64
2020-07-02 09:24:45 GMT 53.374237 0.432991 33,000 285 483 0
2020-07-02 09:24:42 GMT 53.374237 0.432991 33,000 285 483 64
2020-07-02 09:24:39 GMT 53.372589 0.443455 33,000 285 483 0
2020-07-02 09:24:36 GMT 53.370697 0.455367 33,000 285 483 0
2020-07-02 09:24:33 GMT 53.367325 0.476571 33,000 285 481 0
2020-07-02 09:24:27 GMT 53.365112 0.490669 33,000 285 481 0
2020-07-02 09:24:24 GMT 53.363995 0.497858 32,975 285 482 0
2020-07-02 09:24:21 GMT 53.362038 0.510056 32,975 285 482 64
2020-07-02 09:24:18 GMT 53.360367 0.520517 32,975 285 482 0
2020-07-02 09:24:15 GMT 53.358643 0.531625 32,975 285 482 64
2020-07-02 09:24:12 GMT 53.356522 0.544922 32,975 285 482 64
2020-07-02 09:24:09 GMT 53.355377 0.552063 32,975 285 482 64
2020-07-02 09:24:06 GMT 53.353706 0.562484 32,975 285 482 0
2020-07-02 09:24:03 GMT 53.351982 0.573309 32,975 285 482 0
2020-07-02 09:24:00 GMT 53.349934 0.586234 32,975 285 482 0
2020-07-02 09:23:57 GMT 53.346542 0.607387 33,000 285 482 -64
2020-07-02 09:23:54 GMT 53.346542 0.607387 33,000 285 482 -64
2020-07-02 09:23:51 GMT 53.345001 0.617092 32,975 285 482 -64
2020-07-02 09:23:48 GMT 53.342880 0.630458 32,975 285 482 -64
2020-07-02 09:23:45 GMT 53.341137 0.641569 33,000 285 482 -64
2020-07-02 09:23:42 GMT 53.339584 0.651254 33,000 285 482 -64
2020-07-02 09:23:39 GMT 53.338112 0.660230 33,000 285 482 -64
2020-07-02 09:23:36 GMT 53.334732 0.681466 33,000 285 482 -64
2020-07-02 09:23:33 GMT 53.334732 0.681466 33,000 285 482 -64
2020-07-02 09:23:30 GMT 53.333221 0.691169 33,000 285 482 0
2020-07-02 09:23:27 GMT 53.331345 0.703047 33,000 285 482 0
2020-07-02 09:23:24 GMT 53.329544 0.714192 33,000 285 481 0
2020-07-02 09:23:21 GMT 53.327911 0.724548 33,000 286 481 -64
2020-07-02 09:23:18 GMT 53.326263 0.734593 33,000 286 481 -64
2020-07-02 09:23:15 GMT 53.324612 0.744970 33,000 286 480 0
2020-07-02 09:23:12 GMT 53.320934 0.767912 33,000 286 480 -64
2020-07-02 09:23:09 GMT 53.320934 0.767912 33,000 286 479 -64
2020-07-02 09:23:06 GMT 53.319031 0.779637 33,000 286 479 0
2020-07-02 09:23:03 GMT 53.317490 0.789319 33,000 286 479 0
2020-07-02 09:23:00 GMT 53.314369 0.808545 32,975 286 478 0
2020-07-02 09:22:57 GMT 53.314369 0.808545 32,975 286 478 0
2020-07-02 09:22:54 GMT 53.311890 0.823896 32,975 286 478 0
2020-07-02 09:22:51 GMT 53.310783 0.830680 32,975 286 478 64
2020-07-02 09:22:48 GMT 53.308548 0.844535 32,975 286 477 0
2020-07-02 09:22:45 GMT 53.306946 0.854501 32,975 286 477 0
2020-07-02 09:22:42 GMT 53.304977 0.866586 32,975 286 477 -64
2020-07-02 09:22:39 GMT 53.303467 0.875767 33,000 286 477 -64
2020-07-02 09:22:36 GMT 53.301544 0.887852 33,000 286 477 -64
2020-07-02 09:22:33 GMT 53.299847 0.898132 33,000 286 477 -64
2020-07-02 09:22:30 GMT 53.298660 0.905587 33,000 286 477 0
2020-07-02 09:22:27 GMT 53.294724 0.929757 32,975 286 477 64
2020-07-02 09:22:24 GMT 53.294724 0.929757 32,975 286 477 0
2020-07-02 09:22:21 GMT 53.293514 0.937231 32,975 286 477 0
2020-07-02 09:22:18 GMT 53.291698 0.948621 32,975 286 477 -64
2020-07-02 09:22:15 GMT 53.287556 0.974148 32,975 286 477 -64
2020-07-02 09:22:12 GMT 53.287556 0.974148 33,000 286 477 -128
2020-07-02 09:22:09 GMT 53.286530 0.980530 33,000 286 477 -128
2020-07-02 09:22:06 GMT 53.284576 0.992647 33,000 286 477 -128
2020-07-02 09:22:03 GMT 53.283318 1.000483 33,000 286 477 -64
2020-07-02 09:22:00 GMT 53.281403 1.012233 33,000 286 477 -64
2020-07-02 09:21:57 GMT 53.279663 1.022827 33,000 286 477 -64
2020-07-02 09:21:54 GMT 53.277695 1.034912 33,000 286 477 0
2020-07-02 09:21:51 GMT 53.274288 1.055899 33,000 286 477 0
2020-07-02 09:21:48 GMT 53.274288 1.055899 32,975 286 477 0
2020-07-02 09:21:45 GMT 53.272247 1.068263 33,000 286 477 0
2020-07-02 09:21:41 GMT 53.270370 1.079642 32,975 286 477 0
2020-07-02 09:21:38 GMT 53.268703 1.089908 32,975 286 477 0
2020-07-02 09:21:35 GMT 53.266891 1.100909 33,000 286 474 -64
2020-07-02 09:21:32 GMT 53.264977 1.112608 32,975 286 476 0
2020-07-02 09:21:29 GMT 53.261532 1.133854 32,975 286 476 0
2020-07-02 09:21:26 GMT 53.261532 1.133854 33,000 286 476 -64
2020-07-02 09:21:23 GMT 53.259995 1.143063 32,975 286 476 -64
2020-07-02 09:21:20 GMT 53.258560 1.151917 32,975 286 475 -64
2020-07-02 09:21:17 GMT 53.255669 1.169236 33,000 286 475 -64
2020-07-02 09:21:14 GMT 53.254349 1.177342 33,000 286 476 0
2020-07-02 09:21:11 GMT 53.252872 1.186200 33,000 286 476 0
2020-07-02 09:21:08 GMT 53.249477 1.206638 33,000 286 476 0
2020-07-02 09:21:02 GMT 53.247612 1.217948 32,975 286 475 0
2020-07-02 09:20:59 GMT 53.245834 1.228899 32,975 286 475 0
2020-07-02 09:20:56 GMT 53.242172 1.250715 32,975 286 475 0
2020-07-02 09:20:53 GMT 53.242172 1.250715 32,975 286 473 -64
2020-07-02 09:20:50 GMT 53.240662 1.259896 33,000 286 475 -64
2020-07-02 09:20:47 GMT 53.238556 1.272609 33,000 286 475 -64
2020-07-02 09:20:44 GMT 53.237274 1.280378 32,975 286 475 -64
2020-07-02 09:20:41 GMT 53.234985 1.294425 33,000 286 475 -64
2020-07-02 09:20:38 GMT 53.233246 1.305019 32,975 286 474 -64
2020-07-02 09:20:35 GMT 53.231880 1.313109 32,975 286 474 -64
2020-07-02 09:20:32 GMT 53.230225 1.323303 33,000 286 473 -64
2020-07-02 09:20:29 GMT 53.227829 1.337666 33,000 286 473 -64
2020-07-02 09:20:26 GMT 53.226292 1.346795 32,975 286 473 -64
2020-07-02 09:20:23 GMT 53.224228 1.359087 33,000 286 473 -64
2020-07-02 09:20:20 GMT 53.221298 1.376665 33,000 286 473 -64
2020-07-02 09:20:17 GMT 53.221298 1.376665 33,000 286 470 0
2020-07-02 09:20:14 GMT 53.219193 1.389300 32,975 286 473 0
2020-07-02 09:20:11 GMT 53.217682 1.398403 32,975 286 472 0
2020-07-02 09:20:08 GMT 53.216034 1.408212 32,975 286 470 0
2020-07-02 09:20:05 GMT 53.214375 1.418367 32,975 286 472 -64
2020-07-02 09:20:02 GMT 53.212555 1.429164 32,975 286 471 -64
2020-07-02 09:19:59 GMT 53.211136 1.437561 32,975 286 471 -64
2020-07-02 09:19:56 GMT 53.208462 1.453265 33,000 286 471 -64
2020-07-02 09:19:53 GMT 53.206787 1.463379 33,000 286 471 -64
2020-07-02 09:19:50 GMT 53.205276 1.472482 32,975 286 469 0
2020-07-02 09:19:46 GMT 53.202644 1.488163 33,000 286 470 64
2020-07-02 09:19:43 GMT 53.201107 1.497210 33,000 286 470 0
2020-07-02 09:19:40 GMT 53.199711 1.505531 33,000 286 470 64
2020-07-02 09:19:37 GMT 53.196075 1.527492 32,975 286 470 64
2020-07-02 09:19:34 GMT 53.196075 1.527492 32,975 286 469 64
2020-07-02 09:19:31 GMT 53.194290 1.537851 32,975 286 469 -64
2020-07-02 09:19:28 GMT 53.191040 1.557312 33,000 286 468 -64
2020-07-02 09:19:25 GMT 53.189098 1.568783 33,000 286 468 0
2020-07-02 09:19:22 GMT 53.189098 1.568783 32,975 286 468 64
2020-07-02 09:19:19 GMT 53.187328 1.579204 33,000 286 468 0
2020-07-02 09:19:16 GMT 53.185867 1.587838 33,000 286 468 0
2020-07-02 09:19:13 GMT 53.183762 1.600316 32,975 286 468 64
2020-07-02 09:19:10 GMT 53.181835 1.611759 32,975 286 468 64
2020-07-02 09:19:07 GMT 53.180439 1.620079 32,975 286 469 -64
2020-07-02 09:19:04 GMT 53.178864 1.629429 32,975 286 468 64
2020-07-02 09:19:01 GMT 53.176666 1.642613 32,975 286 468 64
2020-07-02 09:18:58 GMT 53.175156 1.651637 32,975 286 469 -64
2020-07-02 09:18:55 GMT 53.173645 1.660662 32,975 286 469 -128
2020-07-02 09:18:52 GMT 53.171455 1.673476 32,975 286 469 -128
2020-07-02 09:18:48 GMT 53.168930 1.688442 33,000 286 469 -128
2020-07-02 09:18:45 GMT 53.165775 1.706839 33,000 286 470 -128
2020-07-02 09:18:42 GMT 53.165775 1.706839 33,000 286 470 -128
2020-07-02 09:18:39 GMT 53.164005 1.717260 33,025 286 471 -128
2020-07-02 09:18:36 GMT 53.162247 1.727365 32,975 286 469 64
2020-07-02 09:18:33 GMT 53.160419 1.738102 33,000 286 471 -64
2020-07-02 09:18:30 GMT 53.158722 1.748239 33,000 286 470 64
2020-07-02 09:18:27 GMT 53.156937 1.758676 32,975 286 470 64
2020-07-02 09:18:24 GMT 53.153366 1.779471 32,975 286 469 64
2020-07-02 09:18:18 GMT 53.151669 1.789560 32,975 286 468 -64
2020-07-02 09:18:15 GMT 53.149979 1.799639 33,000 286 468 -64
2020-07-02 09:18:12 GMT 53.147526 1.813794 33,000 286 468 -64
2020-07-02 09:18:09 GMT 53.145721 1.824515 32,975 286 468 -64
2020-07-02 09:18:06 GMT 53.144165 1.833540 33,000 286 468 0
2020-07-02 09:18:03 GMT 53.142746 1.841779 33,000 286 468 0
2020-07-02 09:18:00 GMT 53.140778 1.853216 33,000 286 467 64
2020-07-02 09:17:57 GMT 53.137299 1.873561 32,975 286 467 64
2020-07-02 09:17:54 GMT 53.137299 1.873561 32,975 286 467 64
2020-07-02 09:17:51 GMT 53.135700 1.882863 32,975 286 467 64
2020-07-02 09:17:48 GMT 53.133423 1.896030 32,975 286 466 128
2020-07-02 09:17:45 GMT 53.129837 1.917036 32,950 286 466 64
2020-07-02 09:17:42 GMT 53.129837 1.917036 32,950 286 466 -64
2020-07-02 09:17:39 GMT 53.128578 1.924304 33,025 286 466 -192
2020-07-02 09:17:36 GMT 53.126404 1.937047 32,975 287 467 -256
2020-07-02 09:17:33 GMT 53.124756 1.946699 33,000 287 467 -320
2020-07-02 09:17:30 GMT 53.122898 1.957344 33,025 287 467 -128
2020-07-02 09:17:27 GMT 53.121223 1.966957 33,025 287 467 -128
2020-07-02 09:17:24 GMT 53.119400 1.977696 33,025 286 468 -64
2020-07-02 09:17:21 GMT 53.117779 1.986991 33,025 287 467 960
2020-07-02 09:17:18 GMT 53.115921 1.997707 32,875 287 467 1024
2020-07-02 09:17:15 GMT 53.114044 2.008772 32,950 287 468 768
2020-07-02 09:17:12 GMT 53.112144 2.019465 32,925 287 467 960
2020-07-02 09:17:09 GMT 53.110657 2.028076 32,875 287 467 1088
2020-07-02 09:17:06 GMT 53.108376 2.040791 32,775 287 467 1024
2020-07-02 09:17:03 GMT 53.106628 2.050834 32,725 287 467 960
2020-07-02 09:17:00 GMT 53.104706 2.061820 32,675 287 467 960
2020-07-02 09:16:57 GMT 53.103516 2.068726 32,675 287 467 832
2020-07-02 09:16:54 GMT 53.101673 2.079405 32,625 287 467 832
2020-07-02 09:16:51 GMT 53.099854 2.090070 32,550 286 465 896
2020-07-02 09:16:48 GMT 53.097473 2.103803 32,550 286 465 896
2020-07-02 09:16:45 GMT 53.094681 2.120285 32,450 286 465 1216
2020-07-02 09:16:39 GMT 53.092129 2.135036 32,350 286 464 1344
2020-07-02 09:16:35 GMT 53.090424 2.145004 32,250 287 465 1472
2020-07-02 09:16:32 GMT 53.088638 2.155304 32,175 287 466 1472
2020-07-02 09:16:29 GMT 53.086853 2.165604 32,100 287 466 1472
2020-07-02 09:16:26 GMT 53.082958 2.187927 32,000 287 466 1472
2020-07-02 09:16:23 GMT 53.082958 2.187927 31,925 287 466 1472
2020-07-02 09:16:17 GMT 53.079605 2.207153 31,750 287 467 1408
2020-07-02 09:16:14 GMT 53.077789 2.217433 31,775 287 467 1344
2020-07-02 09:16:11 GMT 53.076115 2.227086 30,875 287 467 1472
2020-07-02 09:16:08 GMT 53.074493 2.236404 31,600 287 467 1344
2020-07-02 09:16:05 GMT 53.072205 2.249451 31,500 287 467 1344
2020-07-02 09:16:02 GMT 53.070648 2.258453 31,500 287 467 1280
2020-07-02 09:15:59 GMT 53.068668 2.269775 31,425 287 467 1280
2020-07-02 09:15:56 GMT 53.066990 2.279428 31,050 287 467 1472
2020-07-02 09:15:53 GMT 53.064606 2.292786 31,275 287 467 1216
2020-07-02 09:15:50 GMT 53.063686 2.297947 31,250 287 466 1216
2020-07-02 09:15:47 GMT 53.061584 2.310028 31,150 287 466 1344
2020-07-02 09:15:44 GMT 53.059822 2.319999 31,125 287 467 1408
2020-07-02 09:15:41 GMT 53.057465 2.333374 31,025 287 467 1472
2020-07-02 09:15:37 GMT 53.055359 2.345047 30,925 287 467 1408
2020-07-02 09:15:34 GMT 53.053585 2.354998 30,875 287 467 1408
2020-07-02 09:15:31 GMT 53.049866 2.375946 30,700 287 467 1472
2020-07-02 09:15:28 GMT 53.049866 2.375946 30,675 287 467 1472
2020-07-02 09:15:25 GMT 53.048172 2.385559 30,650 287 468 1472
2020-07-02 09:15:22 GMT 53.045811 2.398943 30,550 287 467 1472
2020-07-02 09:15:19 GMT 53.044647 2.405472 30,475 287 468 1408
2020-07-02 09:15:16 GMT 53.042271 2.418876 30,300 287 467 1408
2020-07-02 09:15:13 GMT 53.040527 2.428818 30,325 287 467 1408
2020-07-02 09:15:10 GMT 53.039013 2.437395 30,275 287 467 1408
2020-07-02 09:15:07 GMT 53.037140 2.448044 30,200 287 467 1408
2020-07-02 09:15:04 GMT 53.034943 2.460403 30,150 287 467 1408
2020-07-02 09:15:01 GMT 53.033340 2.469330 30,050 287 467 1280
2020-07-02 09:14:58 GMT 53.031784 2.478256 30,025 287 467 1088
2020-07-02 09:14:55 GMT 53.027527 2.502289 29,800 287 466 960
2020-07-02 09:14:51 GMT 53.027527 2.502289 29,900 287 466 896
2020-07-02 09:14:48 GMT 53.025192 2.515259 29,825 287 464 896
2020-07-02 09:14:45 GMT 53.023464 2.525208 29,775 287 464 960
2020-07-02 09:14:42 GMT 53.022022 2.533369 29,750 287 463 1024
2020-07-02 09:14:39 GMT 53.020157 2.543945 29,675 287 463 1152
2020-07-02 09:14:36 GMT 53.018391 2.553772 29,575 287 462 1344
2020-07-02 09:14:33 GMT 53.016251 2.566014 29,550 287 462 1344
2020-07-02 09:14:30 GMT 53.014389 2.576523 29,475 287 461 1408
2020-07-02 09:14:27 GMT 53.013268 2.582964 29,475 287 461 1408
2020-07-02 09:14:24 GMT 53.010616 2.597874 29,300 287 461 1344
2020-07-02 09:14:21 GMT 53.009445 2.604370 29,250 287 461 1280
2020-07-02 09:14:18 GMT 53.007591 2.614903 29,225 287 461 1152
2020-07-02 09:14:15 GMT 53.005775 2.625026 29,175 287 461 1024
2020-07-02 09:14:12 GMT 53.003864 2.635856 29,075 287 459 896
2020-07-02 09:14:09 GMT 53.002075 2.645645 29,050 287 458 960
2020-07-02 09:14:06 GMT 52.999924 2.657776 29,025 287 459 960
2020-07-02 09:14:03 GMT 52.998047 2.668187 28,925 287 458 1024
2020-07-02 09:13:59 GMT 52.994614 2.687302 28,875 287 457 1088
2020-07-02 09:13:56 GMT 52.994614 2.687302 28,850 287 457 1152
2020-07-02 09:13:53 GMT 52.992645 2.698059 28,750 287 456 1216
2020-07-02 09:13:50 GMT 52.990265 2.711411 28,600 287 455 1152
2020-07-02 09:13:47 GMT 52.988342 2.722092 28,625 287 455 1216
2020-07-02 09:13:44 GMT 52.986786 2.730789 28,325 287 453 1152
2020-07-02 09:13:41 GMT 52.985291 2.739127 28,400 287 453 1152
2020-07-02 09:13:38 GMT 52.983242 2.750427 28,375 287 454 1344
2020-07-02 09:13:35 GMT 52.981384 2.760773 28,375 287 454 1280
2020-07-02 09:13:32 GMT 52.979893 2.769104 28,325 287 454 1152
2020-07-02 09:13:29 GMT 52.978214 2.778364 28,300 287 454 1152
2020-07-02 09:13:26 GMT 52.976120 2.789993 28,150 287 451 0
2020-07-02 09:13:23 GMT 52.974400 2.799630 28,150 287 451 1216
2020-07-02 09:13:20 GMT 52.972641 2.809219 27,950 287 450 1216
2020-07-02 09:13:17 GMT 52.971046 2.818150 28,050 287 450 1216
2020-07-02 09:13:14 GMT 52.968674 2.831334 27,900 287 444 1600
2020-07-02 09:13:11 GMT 52.967285 2.838898 27,875 287 449 1280
2020-07-02 09:13:07 GMT 52.963120 2.861938 27,750 287 448 1152
2020-07-02 09:13:04 GMT 52.963120 2.861938 27,750 287 448 1152
2020-07-02 09:13:01 GMT 52.961105 2.873077 27,675 287 447 1088
2020-07-02 09:12:58 GMT 52.959549 2.881622 27,650 287 447 1088
2020-07-02 09:12:55 GMT 52.957993 2.890091 27,575 287 445 1152
2020-07-02 09:12:52 GMT 52.955826 2.902196 27,450 287 444 1472
2020-07-02 09:12:49 GMT 52.954193 2.910995 27,375 287 444 1600
2020-07-02 09:12:46 GMT 52.952682 2.919464 27,400 287 444 1536
2020-07-02 09:12:43 GMT 52.950073 2.933807 27,250 287 443 1664
2020-07-02 09:12:40 GMT 52.948933 2.939941 27,200 288 444 1536
2020-07-02 09:12:37 GMT 52.947327 2.948761 27,075 288 444 1536
2020-07-02 09:12:33 GMT 52.944420 2.964661 27,000 287 443 1600
2020-07-02 09:12:30 GMT 52.943298 2.970810 26,900 287 442 1536
2020-07-02 09:12:27 GMT 52.941113 2.982788 26,850 287 441 1600
2020-07-02 09:12:23 GMT 52.938972 2.994481 26,675 287 441 1600
2020-07-02 09:12:20 GMT 52.936737 3.006723 26,675 287 441 1600
2020-07-02 09:12:17 GMT 52.935154 3.015198 26,475 287 441 1600
2020-07-02 09:12:13 GMT 52.932690 3.028695 26,475 287 440 1600
2020-07-02 09:12:10 GMT 52.930454 3.041016 26,325 287 440 1600
2020-07-02 09:12:07 GMT 52.929565 3.045807 26,275 287 440 1600
2020-07-02 09:12:04 GMT 52.927521 3.057103 26,225 287 439 1600
2020-07-02 09:12:01 GMT 52.925892 3.066127 26,125 287 439 1600
2020-07-02 09:11:58 GMT 52.924030 3.076407 26,075 287 439 1600
2020-07-02 09:11:55 GMT 52.922260 3.086060 25,975 287 438 1600
2020-07-02 09:11:52 GMT 52.920490 3.095712 25,925 287 438 1600
2020-07-02 09:11:49 GMT 52.918957 3.104030 25,825 288 437 1600
2020-07-02 09:11:46 GMT 52.917187 3.113604 25,775 287 438 1600
2020-07-02 09:11:43 GMT 52.913589 3.133163 25,650 288 437 1600
2020-07-02 09:11:40 GMT 52.913589 3.133163 25,625 288 437 1536
2020-07-02 09:11:37 GMT 52.912125 3.140793 25,500 288 437 1536
2020-07-02 09:11:34 GMT 52.909924 3.152605 25,400 288 436 1600
2020-07-02 09:11:31 GMT 52.907867 3.163757 25,350 288 435 1600
2020-07-02 09:11:28 GMT 52.906082 3.173294 25,275 288 435 1664
2020-07-02 09:11:25 GMT 52.904617 3.181170 25,225 288 435 1664
2020-07-02 09:11:22 GMT 52.902847 3.190744 25,075 288 433 1600
2020-07-02 09:11:19 GMT 52.901367 3.198700 25,000 288 433 1600
2020-07-02 09:11:16 GMT 52.899635 3.207851 24,975 288 433 1536
2020-07-02 09:11:13 GMT 52.897705 3.218307 24,925 288 433 1600
2020-07-02 09:11:10 GMT 52.895912 3.228097 24,775 288 432 1600
2020-07-02 09:11:07 GMT 52.893677 3.240104 24,700 288 431 1728
2020-07-02 09:11:03 GMT 52.889671 3.261527 24,550 288 431 1728
2020-07-02 09:11:00 GMT 52.889671 3.261527 24,550 288 431 1728
2020-07-02 09:10:57 GMT 52.888229 3.269348 24,325 287 429 1536
2020-07-02 09:10:54 GMT 52.886089 3.280988 24,325 287 429 1472
2020-07-02 09:10:51 GMT 52.884613 3.288803 24,275 287 429 1408
2020-07-02 09:10:48 GMT 52.883297 3.296055 24,200 287 429 1344
2020-07-02 09:10:45 GMT 52.880829 3.309788 24,125 287 426 1216
2020-07-02 09:10:39 GMT 52.877426 3.328171 24,000 289 425 1024
2020-07-02 09:10:36 GMT 52.875916 3.335571 23,975 289 425 960
2020-07-02 09:10:33 GMT 52.873940 3.345101 23,900 291 424 768
2020-07-02 09:10:30 GMT 52.872070 3.353271 23,900 291 424 768
2020-07-02 09:10:27 GMT 52.869644 3.363495 23,850 293 422 704
2020-07-02 09:10:24 GMT 52.865524 3.379517 23,800 295 420 768
2020-07-02 09:10:21 GMT 52.865524 3.379517 23,775 295 420 832
2020-07-02 09:10:18 GMT 52.863281 3.387680 23,725 296 419 1088
2020-07-02 09:10:15 GMT 52.859509 3.400661 23,675 298 419 1664
2020-07-02 09:10:12 GMT 52.855179 3.414612 23,575 299 418 1664
2020-07-02 09:10:06 GMT 52.852478 3.422712 23,475 300 418 1728
2020-07-02 09:10:02 GMT 52.848103 3.435503 23,275 302 419 1792
2020-07-02 09:09:56 GMT 52.842545 3.450546 23,125 303 419 1792
2020-07-02 09:09:53 GMT 52.836185 3.466971 23,000 303 418 1792
2020-07-02 09:09:50 GMT 52.836185 3.466971 22,925 303 418 1792
2020-07-02 09:09:47 GMT 52.832565 3.476334 22,875 303 418 1792
2020-07-02 09:09:44 GMT 52.830048 3.482819 22,750 303 417 1728
2020-07-02 09:09:41 GMT 52.826828 3.491063 22,675 303 417 1728
2020-07-02 09:09:38 GMT 52.823776 3.498840 22,525 303 415 1664
2020-07-02 09:09:35 GMT 52.817780 3.514328 22,525 303 415 1664
2020-07-02 09:09:32 GMT 52.817780 3.514328 22,425 303 414 1664
2020-07-02 09:09:29 GMT 52.813328 3.525748 22,350 303 413 1664
2020-07-02 09:09:26 GMT 52.810814 3.532104 22,250 303 412 1664
2020-07-02 09:09:22 GMT 52.804855 3.547485 22,150 303 411 1600
2020-07-02 09:09:16 GMT 52.799919 3.560120 22,000 303 410 1408
2020-07-02 09:09:12 GMT 52.795944 3.570328 21,875 303 408 1216
2020-07-02 09:09:09 GMT 52.793884 3.575592 21,875 303 406 1024
2020-07-02 09:09:06 GMT 52.790863 3.583374 21,800 303 406 1024
2020-07-02 09:09:03 GMT 52.787724 3.591431 21,775 303 404 832
2020-07-02 09:09:00 GMT 52.784592 3.599472 21,750 303 402 832
2020-07-02 09:08:57 GMT 52.780746 3.609238 21,675 303 399 1216
2020-07-02 09:08:54 GMT 52.778831 3.614110 21,200 303 397 2112
2020-07-02 09:08:51 GMT 52.775063 3.623762 21,525 303 397 2112
2020-07-02 09:08:45 GMT 52.769760 3.637238 21,300 303 396 2240
2020-07-02 09:08:42 GMT 52.766190 3.646393 21,225 303 396 2304
2020-07-02 09:08:38 GMT 52.762493 3.655779 20,600 303 396 2816
2020-07-02 09:08:35 GMT 52.759598 3.663101 20,825 303 396 2560
2020-07-02 09:08:32 GMT 52.755981 3.672256 20,825 303 396 2816
2020-07-02 09:08:29 GMT 52.754196 3.676834 20,675 303 397 3328
2020-07-02 09:08:26 GMT 52.750626 3.685913 20,425 304 399 3904
2020-07-02 09:08:23 GMT 52.747604 3.693542 20,300 304 399 4032
2020-07-02 09:08:20 GMT 52.744766 3.700714 20,125 304 401 4160
2020-07-02 09:08:17 GMT 52.741562 3.708954 19,850 304 405 4032
2020-07-02 09:08:13 GMT 52.737488 3.719254 19,750 304 405 4032
2020-07-02 09:08:10 GMT 52.733444 3.729466 19,400 303 411 2240
2020-07-02 09:08:07 GMT 52.731308 3.734894 19,275 303 409 2688
2020-07-02 09:08:04 GMT 52.728195 3.742752 19,175 303 411 2432
2020-07-02 09:08:01 GMT 52.725311 3.750153 19,100 303 411 2240
2020-07-02 09:07:58 GMT 52.722134 3.758266 18,900 303 409 2176
2020-07-02 09:07:55 GMT 52.718903 3.766403 18,825 303 409 2176
2020-07-02 09:07:52 GMT 52.715755 3.774510 18,750 303 409 2176
2020-07-02 09:07:49 GMT 52.712952 3.781509 18,700 303 409 2176
2020-07-02 09:07:46 GMT 52.710114 3.788834 18,475 303 408 2240
2020-07-02 09:07:43 GMT 52.706635 3.797760 18,400 303 408 2240
2020-07-02 09:07:40 GMT 52.703045 3.806841 17,950 303 406 2240
2020-07-02 09:07:37 GMT 52.699493 3.815994 18,150 303 406 2240
2020-07-02 09:07:34 GMT 52.697365 3.821437 18,025 303 406 2176
2020-07-02 09:07:31 GMT 52.694481 3.828735 17,950 303 406 2176
2020-07-02 09:07:28 GMT 52.691345 3.836746 16,750 303 404 2112
2020-07-02 09:07:25 GMT 52.687912 3.845520 17,750 303 404 2112
2020-07-02 09:07:22 GMT 52.685356 3.852042 17,575 303 404 2176
2020-07-02 09:07:18 GMT 52.681911 3.860753 17,525 303 404 2176
2020-07-02 09:07:15 GMT 52.677208 3.872602 17,375 304 403 2240
2020-07-02 09:07:12 GMT 52.674973 3.878252 17,200 304 409 2304
2020-07-02 09:07:09 GMT 52.668228 3.895493 17,075 304 401 2240
2020-07-02 09:07:06 GMT 52.668228 3.895493 17,025 304 401 2240
2020-07-02 09:07:03 GMT 52.666084 3.900853 16,875 304 401 2304
2020-07-02 09:07:00 GMT 52.663055 3.908543 16,850 304 401 2240
2020-07-02 09:06:57 GMT 52.660450 3.915213 16,775 304 401 2304
2020-07-02 09:06:54 GMT 52.656773 3.924395 16,550 304 400 3072
2020-07-02 09:06:51 GMT 52.653854 3.931732 16,400 304 400 3136
2020-07-02 09:06:48 GMT 52.651325 3.938128 16,400 304 400 3136
2020-07-02 09:06:45 GMT 52.648407 3.945541 16,250 304 401 3456
2020-07-02 09:06:42 GMT 52.644379 3.955688 15,975 304 401 4160
2020-07-02 09:06:39 GMT 52.641907 3.961868 15,825 304 403 4416
2020-07-02 09:06:36 GMT 52.635544 3.977814 15,100 304 407 4736
2020-07-02 09:06:33 GMT 52.633358 3.983250 15,200 304 410 4608
2020-07-02 09:06:30 GMT 52.628677 3.995056 15,050 304 411 4288
2020-07-02 09:06:27 GMT 52.628677 3.995056 14,975 304 412 4096
2020-07-02 09:06:23 GMT 52.625397 4.003183 14,575 304 416 2752
2020-07-02 09:06:20 GMT 52.621624 4.012756 14,500 304 416 2432
2020-07-02 09:06:17 GMT 52.619019 4.019394 14,400 304 415 2112
2020-07-02 09:06:14 GMT 52.614735 4.030178 14,050 304 412 2240
2020-07-02 09:06:11 GMT 52.612827 4.034964 14,125 304 414 2112
2020-07-02 09:06:08 GMT 52.609589 4.043121 14,025 304 412 2240
2020-07-02 09:06:05 GMT 52.606544 4.050659 14,025 304 412 2240
2020-07-02 09:06:02 GMT 52.603317 4.058838 13,800 304 411 2304
2020-07-02 09:05:59 GMT 52.598209 4.071612 13,750 304 411 2304
2020-07-02 09:05:56 GMT 52.596535 4.075771 13,625 304 410 2304
2020-07-02 09:05:53 GMT 52.593933 4.082260 13,575 304 409 2304
2020-07-02 09:05:50 GMT 52.590946 4.089818 13,425 304 408 2304
2020-07-02 09:05:47 GMT 52.587936 4.097366 13,275 304 408 2304
2020-07-02 09:05:44 GMT 52.584457 4.106140 13,050 303 407 2240
2020-07-02 09:05:41 GMT 52.578278 4.121704 12,925 303 404 2304
2020-07-02 09:05:38 GMT 52.578278 4.121704 12,950 304 405 2304
2020-07-02 09:05:35 GMT 52.575668 4.128418 12,800 303 404 2368
2020-07-02 09:05:32 GMT 52.572094 4.137373 12,725 303 404 2432
2020-07-02 09:05:28 GMT 52.568230 4.147182 12,575 304 403 2432
2020-07-02 09:05:25 GMT 52.565094 4.155121 11,025 304 402 2496
2020-07-02 09:05:21 GMT 52.560921 4.165545 12,175 304 401 2496
2020-07-02 09:05:18 GMT 52.557999 4.172974 12,150 304 401 2496
2020-07-02 09:05:14 GMT 52.554382 4.182129 11,975 304 399 2432
2020-07-02 09:05:11 GMT 52.550537 4.191742 11,925 304 398 2432
2020-07-02 09:05:08 GMT 52.543900 4.208450 11,700 304 398 2432
2020-07-02 09:05:04 GMT 52.543900 4.208450 11,575 303 396 2368
2020-07-02 09:05:01 GMT 52.541416 4.214748 11,550 303 396 2368
2020-07-02 09:04:58 GMT 52.537720 4.224091 11,375 304 396 2240
2020-07-02 09:04:55 GMT 52.534618 4.231855 11,200 304 394 2112
2020-07-02 09:04:52 GMT 52.530945 4.241180 11,125 304 393 2048
2020-07-02 09:04:49 GMT 52.528976 4.246140 11,075 304 393 1984
2020-07-02 09:04:46 GMT 52.526100 4.253357 10,975 304 391 1664
2020-07-02 09:04:43 GMT 52.522064 4.263535 10,925 304 390 1472
2020-07-02 09:04:40 GMT 52.520050 4.268494 10,825 304 387 1216
2020-07-02 09:04:37 GMT 52.514145 4.283142 10,750 304 385 960
2020-07-02 09:04:34 GMT 52.514145 4.283142 10,700 304 382 960
2020-07-02 09:04:31 GMT 52.510620 4.291840 10,700 304 382 896
2020-07-02 09:04:28 GMT 52.508179 4.297773 10,650 304 378 896
2020-07-02 09:04:25 GMT 52.502472 4.311752 10,575 304 374 896
2020-07-02 09:04:22 GMT 52.502472 4.311752 10,550 305 373 832
2020-07-02 09:04:19 GMT 52.499405 4.319229 10,500 305 370 832
2020-07-02 09:04:16 GMT 52.496338 4.326706 10,475 304 367 896
2020-07-02 09:04:13 GMT 52.494164 4.331988 10,450 304 365 1024
2020-07-02 09:04:10 GMT 52.490582 4.340698 10,350 305 360 2048
2020-07-02 09:04:07 GMT 52.488159 4.346584 10,275 305 360 2304
2020-07-02 09:04:03 GMT 52.484665 4.354858 10,075 308 360 2496
2020-07-02 09:04:00 GMT 52.481049 4.362717 9,975 310 362 2560
2020-07-02 09:03:57 GMT 52.478336 4.367929 9,925 313 362 2624
2020-07-02 09:03:54 GMT 52.474846 4.373893 9,750 318 363 2496
2020-07-02 09:03:51 GMT 52.471252 4.379272 9,575 323 365 2368
2020-07-02 09:03:48 GMT 52.466766 4.385147 9,375 325 366 2304
2020-07-02 09:03:45 GMT 52.463150 4.389267 9,400 328 365 2240
2020-07-02 09:03:42 GMT 52.458088 4.394296 9,250 333 366 2112
2020-07-02 09:03:39 GMT 52.454636 4.397278 9,125 337 368 2176
2020-07-02 09:03:36 GMT 52.448730 4.401550 9,050 340 368 2176
2020-07-02 09:03:33 GMT 52.445705 4.403399 9,000 341 368 2112
2020-07-02 09:03:30 GMT 52.434856 4.408264 8,800 349 369 2176
2020-07-02 09:03:27 GMT 52.434856 4.408264 8,725 351 369 2240
2020-07-02 09:03:24 GMT 52.429962 4.409714 8,650 352 369 2240
2020-07-02 09:03:21 GMT 52.423187 4.411163 8,500 355 368 2176
2020-07-02 09:03:18 GMT 52.418983 4.411874 8,425 355 368 2048
2020-07-02 09:03:15 GMT 52.412514 4.412816 8,325 355 366 1728
2020-07-02 09:03:12 GMT 52.408997 4.413376 8,275 355 366 1856
2020-07-02 09:03:09 GMT 52.404087 4.414150 8,125 356 359 1024
2020-07-02 09:03:06 GMT 52.399246 4.414825 8,075 356 362 1216
2020-07-02 09:03:03 GMT 52.393936 4.415588 8,025 356 358 960
2020-07-02 09:03:00 GMT 52.389793 4.416112 7,950 355 356 896
2020-07-02 09:02:57 GMT 52.384689 4.416885 7,875 345 341 1920
2020-07-02 09:02:54 GMT 52.379883 4.417953 7,875 350 348 960
2020-07-02 09:02:51 GMT 52.374947 4.419250 7,825 348 344 1408
2020-07-02 09:02:48 GMT 52.368984 4.421369 7,775 347 342 1728
2020-07-02 09:02:45 GMT 52.365913 4.422625 7,725 345 341 1920
2020-07-02 09:02:42 GMT 52.361073 4.424822 7,550 341 336 1920
2020-07-02 09:02:39 GMT 52.355160 4.428196 7,500 341 336 1920
2020-07-02 09:02:36 GMT 52.350723 4.431076 7,375 337 334 2112
2020-07-02 09:02:33 GMT 52.343719 4.436340 7,225 333 330 2624
2020-07-02 09:02:30 GMT 52.343719 4.436340 7,150 333 330 2624
2020-07-02 09:02:27 GMT 52.339008 4.440438 6,975 331 330 2816
2020-07-02 09:02:24 GMT 52.334885 4.444275 6,825 330 329 2560
2020-07-02 09:02:21 GMT 52.326828 4.452209 6,750 330 328 2112
2020-07-02 09:02:18 GMT 52.326828 4.452209 6,650 329 327 2048
2020-07-02 09:02:15 GMT 52.323040 4.455898 6,600 330 327 2048
2020-07-02 09:02:12 GMT 52.319687 4.459115 6,450 330 325 2176
2020-07-02 09:02:09 GMT 52.317081 4.461626 6,375 330 324 2368
2020-07-02 09:02:06 GMT 52.312706 4.465864 6,150 330 322 2432
2020-07-02 09:02:03 GMT 52.308331 4.470101 6,050 330 322 2432
2020-07-02 09:02:00 GMT 52.304626 4.473648 6,000 330 320 2496
2020-07-02 09:01:57 GMT 52.296982 4.481049 5,775 330 319 2432
2020-07-02 09:01:51 GMT 52.293137 4.484711 5,625 330 319 2432
2020-07-02 09:01:48 GMT 52.289196 4.488464 5,350 330 316 2368
2020-07-02 09:01:45 GMT 52.285938 4.491603 5,450 322 292 1600
2020-07-02 09:01:42 GMT 52.280777 4.496613 5,200 330 315 2304
2020-07-02 09:01:39 GMT 52.278118 4.499137 5,075 330 314 2112
2020-07-02 09:01:36 GMT 52.273415 4.503767 5,000 322 292 1600
2020-07-02 09:01:33 GMT 52.270901 4.506199 5,000 330 312 1984
2020-07-02 09:01:30 GMT 52.266991 4.510123 4,850 328 306 1408
2020-07-02 09:01:27 GMT 52.263313 4.513811 4,775 328 306 1472
2020-07-02 09:01:24 GMT 52.259727 4.517421 4,725 328 304 1344
2020-07-02 09:01:21 GMT 52.255829 4.521484 4,650 327 300 1216
2020-07-02 09:01:18 GMT 52.252853 4.524765 4,575 325 294 1280
2020-07-02 09:01:15 GMT 52.249393 4.528721 4,450 322 292 1600
2020-07-02 09:01:12 GMT 52.246414 4.532567 4,425 318 288 2112
2020-07-02 09:01:09 GMT 52.243855 4.536333 4,375 316 287 2240
2020-07-02 09:01:06 GMT 52.240364 4.542768 4,200 307 282 2240
2020-07-02 09:01:03 GMT 52.238548 4.546849 4,100 302 278 2048
2020-07-02 09:01:00 GMT 52.235149 4.556737 3,975 293 274 1664
2020-07-02 09:00:54 GMT 52.233288 4.565212 3,850 285 269 1408
2020-07-02 09:00:51 GMT 52.232449 4.571097 3,750 280 265 1216
2020-07-02 09:00:48 GMT 52.232124 4.574707 3,725 276 262 1216
2020-07-02 09:00:45 GMT 52.231846 4.582476 3,650 267 255 1152
2020-07-02 09:00:41 GMT 52.232162 4.589996 3,625 265 254 1024
2020-07-02 09:00:38 GMT 52.233425 4.599034 3,525 256 248 1024
2020-07-02 09:00:35 GMT 52.233936 4.601859 3,475 253 244 1088
2020-07-02 09:00:32 GMT 52.234589 4.605179 3,450 252 241 1088
2020-07-02 09:00:29 GMT 52.235733 4.610672 3,375 252 239 1280
2020-07-02 09:00:26 GMT 52.236919 4.616612 3,300 253 232 1280
2020-07-02 09:00:23 GMT 52.237610 4.620132 3,250 253 230 1600
2020-07-02 09:00:20 GMT 52.238731 4.625950 3,175 252 228 1984
2020-07-02 09:00:17 GMT 52.241776 4.638519 2,975 248 226 2112
2020-07-02 09:00:14 GMT 52.241776 4.638519 2,925 244 224 1984
2020-07-02 09:00:11 GMT 52.242271 4.640233 2,850 243 224 1920
2020-07-02 09:00:08 GMT 52.243744 4.644852 2,725 241 223 1856
2020-07-02 09:00:04 GMT 52.245667 4.650040 2,650 238 220 1856
2020-07-02 09:00:01 GMT 52.247532 4.654593 2,550 233 219 1728
2020-07-02 08:59:58 GMT 52.250107 4.659882 2,475 227 215 1664
2020-07-02 08:59:55 GMT 52.253357 4.665604 2,375 227 215 1664
2020-07-02 08:59:52 GMT 52.253357 4.665604 2,275 225 213 1792
2020-07-02 08:59:49 GMT 52.255463 4.669037 2,225 225 199 1024
2020-07-02 08:59:46 GMT 52.257156 4.671707 1,900 225 210 1728
2020-07-02 08:59:43 GMT 52.260056 4.676252 1,900 225 208 1536
2020-07-02 08:59:40 GMT 52.261963 4.679391 1,875 225 205 1280
2020-07-02 08:59:37 GMT 52.264709 4.683707 1,750 226 196 1024
2020-07-02 08:59:34 GMT 52.268738 4.689865 1,800 224 200 1088
2020-07-02 08:59:30 GMT 52.268738 4.689865 1,750 225 197 1024
2020-07-02 08:59:27 GMT 52.271027 4.693680 1,700 228 194 1152
2020-07-02 08:59:24 GMT 52.274673 4.700579 1,625 231 190 1344
2020-07-02 08:59:20 GMT 52.274673 4.700579 1,575 233 188 1280
2020-07-02 08:59:17 GMT 52.277416 4.707014 1,475 237 183 1664
2020-07-02 08:59:14 GMT 52.277664 4.707565 1,400 238 183 2112
2020-07-02 08:59:11 GMT 52.278946 4.710846 1,250 238 182 2688
2020-07-02 08:59:08 GMT 52.280167 4.713998 1,175 238 183 2880
2020-07-02 08:59:04 GMT 52.281921 4.718475 950 238 183 3072
2020-07-02 08:59:01 GMT 52.283611 4.722866 650 238 184 3136
2020-07-02 08:58:58 GMT 52.284492 4.725220 775 238 184 2944
2020-07-02 08:58:54 GMT 52.286819 4.731216 500 239 183 2240
2020-07-02 08:58:51 GMT 52.287964 4.734268 400 238 182 1984
2020-07-02 08:58:48 GMT 52.289429 4.738007 300 238 179 1664
2020-07-02 08:58:45 GMT 52.290916 4.741778 200 238 179 1664
2020-07-02 08:58:29 GMT 52.297249 4.758414 125 238 126 0
2020-07-02 08:58:18 GMT 52.300461 4.766811 125 239 104 -64
2020-07-02 08:58:12 GMT 52.301975 4.770676 0 236 82
2020-07-02 08:58:07 GMT 52.302898 4.773121 0 239 57
2020-07-02 08:58:03 GMT 52.303333 4.774303 0 236 17
2020-07-02 08:57:59 GMT 52.303719 4.775286 0 236 26
2020-07-02 08:57:49 GMT 52.303963 4.775887 0 236 0
2020-07-02 08:57:28 GMT 52.303967 4.775914 0 236 0
2020-07-02 08:57:12 GMT 52.303974 4.775906 0 236 0
2020-07-02 08:56:52 GMT 52.304066 4.776230 0 216 5
2020-07-02 08:56:44 GMT 52.304150 4.776502 0 182 6
2020-07-02 08:56:32 GMT 52.304478 4.776483 0 151 10
2020-07-02 08:56:21 GMT 52.305000 4.776031 0 151 13
2020-07-02 08:56:13 GMT 52.305416 4.775677 0 151 13
2020-07-02 08:56:06 GMT 52.305794 4.775372 0 151 13
2020-07-02 08:56:02 GMT 52.305954 4.775238 0 151 13
2020-07-02 08:55:53 GMT 52.306492 4.774796 0 157 13
2020-07-02 08:55:42 GMT 52.307049 4.774540 0 182 13
2020-07-02 08:55:31 GMT 52.307770 4.774639 0 182 16
2020-07-02 08:55:22 GMT 52.308380 4.774685 0 182 15
2020-07-02 08:55:13 GMT 52.309078 4.774742 0 182 18
2020-07-02 08:55:01 GMT 52.309921 4.774815 0 182 16
2020-07-02 08:54:53 GMT 52.310551 4.774894 0 182 15
2020-07-02 08:54:42 GMT 52.311207 4.774952 0 182 15
2020-07-02 08:54:28 GMT 52.312111 4.775031 0 180 15
2020-07-02 08:54:22 GMT 52.312508 4.775051 0 149 14
2020-07-02 08:54:11 GMT 52.313148 4.774639 0 135 14
2020-07-02 08:54:02 GMT 52.313648 4.773775 0 129 15
2020-07-02 08:53:51 GMT 52.314045 4.773006 0 129 15
2020-07-02 08:53:39 GMT 52.314533 4.772108 0 123 14
2020-07-02 08:53:31 GMT 52.314812 4.771382 0 98 14
2020-07-02 08:53:21 GMT 52.314857 4.770355 0 84 15
2020-07-02 08:53:06 GMT 52.314789 4.768753 0 87 14
2020-07-02 08:53:01 GMT 52.314777 4.768223 0 84 13
2020-07-02 08:52:51 GMT 52.314732 4.767246 0 87 12
2020-07-02 08:52:40 GMT 52.314709 4.766407 0 84 11
2020-07-02 08:52:29 GMT 52.314671 4.765496 0 84 11
2020-07-02 08:52:21 GMT 52.314617 4.764843 0 109 12
2020-07-02 08:52:06 GMT 52.314999 4.763652 0 123 14
2020-07-02 08:51:59 GMT 52.315243 4.763083 0 112 13
2020-07-02 08:51:48 GMT 52.315407 4.762058 0 84 13
2020-07-02 08:51:41 GMT 52.315380 4.761318 0 84 15
2020-07-02 08:51:31 GMT 52.315327 4.759846 0 84 22
2020-07-02 08:51:16 GMT 52.315231 4.757414 0 84 22
2020-07-02 08:51:09 GMT 52.315193 4.756295 0 87 21
2020-07-02 08:51:00 GMT 52.315159 4.755040 0 87 18
2020-07-02 08:50:51 GMT 52.315109 4.753799 0 87 16
2020-07-02 08:50:47 GMT 52.315098 4.753437 0 87 16
2020-07-02 08:50:42 GMT 52.315075 4.752827 0 87 15
2020-07-02 08:50:39 GMT 52.315067 4.752509 0 87 15
2020-07-02 08:50:35 GMT 52.315056 4.752077 0 87 14
2020-07-02 08:50:27 GMT 52.315022 4.751234 0 84 14
2020-07-02 08:50:24 GMT 52.315010 4.750979 0 87 13
2020-07-02 08:50:20 GMT 52.314995 4.750557 0 87 12
2020-07-02 08:50:14 GMT 52.314976 4.750057 0 87 11
2020-07-02 08:50:10 GMT 52.314972 4.749737 0 87 11
2020-07-02 08:50:06 GMT 52.314964 4.749449 0 87 10
2020-07-02 08:50:00 GMT 52.314949 4.749031 0 87 10
2020-07-02 08:49:55 GMT 52.314938 4.748703 0 87 10
2020-07-02 08:49:49 GMT 52.314926 4.748271 0 84 10
2020-07-02 08:49:40 GMT 52.314903 4.747565 0 78 9
2020-07-02 08:49:29 GMT 52.314857 4.746895 0 25 9
2020-07-02 08:49:22 GMT 52.314636 4.746682 0 0 9
2020-07-02 08:49:19 GMT 52.314533 4.746702 0 5 8
2020-07-02 08:49:11 GMT 52.314228 4.746682 0 45 9
2020-07-02 08:49:05 GMT 52.314068 4.746427 0 45 9
2020-07-02 08:48:55 GMT 52.313770 4.745922 0 2 9
2020-07-02 08:48:49 GMT 52.313580 4.745898 0 0 10
2020-07-02 08:48:39 GMT 52.313221 4.745865 0 0 6
2020-07-02 08:48:08 GMT 52.312984 4.745858 0 2 0
2020-07-02 08:47:47 GMT 52.312981 4.745865 0 2 0
2020-07-02 08:47:12 GMT 52.312984 4.745858 0 2 0
2020-07-02 08:46:58 GMT 52.312981 4.745865 0 2 0
2020-07-02 08:46:42 GMT 52.312984 4.745858 0 2 0
2020-07-02 08:46:31 GMT 52.312981 4.745865 0 2 0
2020-07-02 08:46:23 GMT 52.312984 4.745858 0 2 0

Making use of Plane Finder data

You are free to use the raw flight data, aircraft information and images provided in this report for your own purposes provided the data is correctly attributed to Plane Finder. We ask that you please credit Plane Finder and link to planefinder.net in close proximity to the content.

Optionally one of the following logos (no smaller then 150x24px) can be used and must link to planefinder.net

Embedding the Plane Finder map

You are welcome to embed the Plane Finder playback map on your website to offer visitors a more interactive experience. We suggest using the following HTML code:

<iframe src="//planefinder.net/data/report/UA2811-N12010-7700-squawk-2020-07-02/map" width="800" height="600" seamless="seamless"></iframe>

Where our data comes from

Plane Finder has a global network of data feeds and antenna radars that receive data broadcast directly from aircraft. The primary technologies used are ADS-B and MLAT. We also show feeds from the FAA and a FLARM glider feed.

Click here to find out more about the Plane Finder network.

How we collect our data